<?xml version="1.0" encoding="UTF-8" standalone="no" ?>
<gpx xmlns="http://www.topografix.com/GPX/1/1" xmlns:xsi="http://www.w3.org/2001/XMLSchema-instance" xsi:schemaLocation="http://www.topografix.com/GPX/1/1 http://www.topografix.com/GPX/1/1/gpx.xsd" version="1.1" creator="VisuGPX - https://www.visugpx.com">
  <metadata>
    <name>RECO FIGANIERES LA VOIE ROMAINE</name>
    <desc><![CDATA[Parcours à cheval sur les communes de Draguignan et de Figanières empruntant la voie romaine. ]]></desc>
  </metadata>
  <trk>
    <name><![CDATA[Tracé actuel: 26 FEV 2016 08:18]]></name>
    <trkseg>
      <trkpt lat="43.56727" lon="6.49826">
        <ele>341.89</ele>
        <time>2016-02-26T07:18:27Z</time>
      </trkpt>
      <trkpt lat="43.56729" lon="6.49824">
        <ele>341.89</ele>
        <time>2016-02-26T07:18:28Z</time>
      </trkpt>
      <trkpt lat="43.56728" lon="6.49822">
        <ele>338.52</ele>
        <time>2016-02-26T07:18:35Z</time>
      </trkpt>
      <trkpt lat="43.56726" lon="6.49823">
        <ele>335.16</ele>
        <time>2016-02-26T07:18:40Z</time>
      </trkpt>
      <trkpt lat="43.56726" lon="6.49823">
        <ele>335.64</ele>
        <time>2016-02-26T07:18:41Z</time>
      </trkpt>
      <trkpt lat="43.56726" lon="6.49823">
        <ele>332.75</ele>
        <time>2016-02-26T07:18:43Z</time>
      </trkpt>
      <trkpt lat="43.56726" lon="6.49823">
        <ele>333.23</ele>
        <time>2016-02-26T07:18:44Z</time>
      </trkpt>
      <trkpt lat="43.56726" lon="6.49823">
        <ele>329.39</ele>
        <time>2016-02-26T07:18:47Z</time>
      </trkpt>
      <trkpt lat="43.56726" lon="6.49823">
        <ele>334.2</ele>
        <time>2016-02-26T07:18:48Z</time>
      </trkpt>
      <trkpt lat="43.56727" lon="6.49824">
        <ele>330.83</ele>
        <time>2016-02-26T07:18:50Z</time>
      </trkpt>
      <trkpt lat="43.56727" lon="6.49824">
        <ele>330.83</ele>
        <time>2016-02-26T07:18:51Z</time>
      </trkpt>
      <trkpt lat="43.56726" lon="6.49823">
        <ele>327.47</ele>
        <time>2016-02-26T07:18:57Z</time>
      </trkpt>
      <trkpt lat="43.5673" lon="6.49819">
        <ele>324.1</ele>
        <time>2016-02-26T07:19:09Z</time>
      </trkpt>
      <trkpt lat="43.56732" lon="6.49817">
        <ele>324.1</ele>
        <time>2016-02-26T07:19:11Z</time>
      </trkpt>
      <trkpt lat="43.56736" lon="6.49802">
        <ele>321.22</ele>
        <time>2016-02-26T07:19:23Z</time>
      </trkpt>
      <trkpt lat="43.56742" lon="6.49788">
        <ele>319.3</ele>
        <time>2016-02-26T07:19:37Z</time>
      </trkpt>
      <trkpt lat="43.56742" lon="6.49787">
        <ele>319.3</ele>
        <time>2016-02-26T07:19:38Z</time>
      </trkpt>
      <trkpt lat="43.56743" lon="6.49785">
        <ele>319.3</ele>
        <time>2016-02-26T07:19:40Z</time>
      </trkpt>
      <trkpt lat="43.56747" lon="6.49771">
        <ele>319.3</ele>
        <time>2016-02-26T07:19:52Z</time>
      </trkpt>
      <trkpt lat="43.56745" lon="6.4975">
        <ele>319.3</ele>
        <time>2016-02-26T07:20:06Z</time>
      </trkpt>
      <trkpt lat="43.56745" lon="6.49749">
        <ele>319.3</ele>
        <time>2016-02-26T07:20:07Z</time>
      </trkpt>
      <trkpt lat="43.56739" lon="6.49729">
        <ele>320.74</ele>
        <time>2016-02-26T07:20:22Z</time>
      </trkpt>
      <trkpt lat="43.56732" lon="6.49713">
        <ele>322.66</ele>
        <time>2016-02-26T07:20:35Z</time>
      </trkpt>
      <trkpt lat="43.56724" lon="6.49696">
        <ele>325.06</ele>
        <time>2016-02-26T07:20:49Z</time>
      </trkpt>
      <trkpt lat="43.56715" lon="6.4968">
        <ele>327.95</ele>
        <time>2016-02-26T07:21:04Z</time>
      </trkpt>
      <trkpt lat="43.56711" lon="6.49675">
        <ele>328.91</ele>
        <time>2016-02-26T07:21:17Z</time>
      </trkpt>
      <trkpt lat="43.56705" lon="6.49665">
        <ele>330.83</ele>
        <time>2016-02-26T07:21:31Z</time>
      </trkpt>
      <trkpt lat="43.56705" lon="6.4965">
        <ele>333.71</ele>
        <time>2016-02-26T07:21:45Z</time>
      </trkpt>
      <trkpt lat="43.56714" lon="6.49628">
        <ele>337.08</ele>
        <time>2016-02-26T07:22:03Z</time>
      </trkpt>
      <trkpt lat="43.56721" lon="6.49612">
        <ele>339</ele>
        <time>2016-02-26T07:22:18Z</time>
      </trkpt>
      <trkpt lat="43.56726" lon="6.496">
        <ele>340.92</ele>
        <time>2016-02-26T07:22:32Z</time>
      </trkpt>
      <trkpt lat="43.56727" lon="6.49598">
        <ele>341.41</ele>
        <time>2016-02-26T07:22:55Z</time>
      </trkpt>
      <trkpt lat="43.5673" lon="6.49582">
        <ele>343.33</ele>
        <time>2016-02-26T07:23:09Z</time>
      </trkpt>
      <trkpt lat="43.56735" lon="6.49569">
        <ele>346.21</ele>
        <time>2016-02-26T07:23:24Z</time>
      </trkpt>
      <trkpt lat="43.56743" lon="6.49553">
        <ele>347.65</ele>
        <time>2016-02-26T07:23:32Z</time>
      </trkpt>
      <trkpt lat="43.56745" lon="6.4955">
        <ele>348.13</ele>
        <time>2016-02-26T07:23:34Z</time>
      </trkpt>
      <trkpt lat="43.56753" lon="6.49527">
        <ele>350.54</ele>
        <time>2016-02-26T07:23:49Z</time>
      </trkpt>
      <trkpt lat="43.56755" lon="6.49506">
        <ele>351.98</ele>
        <time>2016-02-26T07:24:03Z</time>
      </trkpt>
      <trkpt lat="43.56759" lon="6.49486">
        <ele>353.9</ele>
        <time>2016-02-26T07:24:18Z</time>
      </trkpt>
      <trkpt lat="43.56769" lon="6.49464">
        <ele>356.31</ele>
        <time>2016-02-26T07:24:33Z</time>
      </trkpt>
      <trkpt lat="43.56769" lon="6.49463">
        <ele>356.31</ele>
        <time>2016-02-26T07:24:34Z</time>
      </trkpt>
      <trkpt lat="43.56772" lon="6.49455">
        <ele>356.79</ele>
        <time>2016-02-26T07:24:38Z</time>
      </trkpt>
      <trkpt lat="43.56778" lon="6.4943">
        <ele>358.71</ele>
        <time>2016-02-26T07:24:53Z</time>
      </trkpt>
      <trkpt lat="43.56786" lon="6.49405">
        <ele>360.15</ele>
        <time>2016-02-26T07:25:08Z</time>
      </trkpt>
      <trkpt lat="43.56794" lon="6.49384">
        <ele>362.55</ele>
        <time>2016-02-26T07:25:22Z</time>
      </trkpt>
      <trkpt lat="43.56798" lon="6.4938">
        <ele>363.52</ele>
        <time>2016-02-26T07:25:35Z</time>
      </trkpt>
      <trkpt lat="43.56797" lon="6.4938">
        <ele>363.52</ele>
        <time>2016-02-26T07:25:45Z</time>
      </trkpt>
      <trkpt lat="43.56799" lon="6.49376">
        <ele>364</ele>
        <time>2016-02-26T07:25:48Z</time>
      </trkpt>
      <trkpt lat="43.56806" lon="6.49356">
        <ele>365.92</ele>
        <time>2016-02-26T07:26:02Z</time>
      </trkpt>
      <trkpt lat="43.56814" lon="6.49344">
        <ele>367.36</ele>
        <time>2016-02-26T07:26:10Z</time>
      </trkpt>
      <trkpt lat="43.56818" lon="6.49324">
        <ele>369.76</ele>
        <time>2016-02-26T07:26:23Z</time>
      </trkpt>
      <trkpt lat="43.56822" lon="6.49319">
        <ele>370.73</ele>
        <time>2016-02-26T07:26:28Z</time>
      </trkpt>
      <trkpt lat="43.56825" lon="6.49305">
        <ele>372.17</ele>
        <time>2016-02-26T07:26:37Z</time>
      </trkpt>
      <trkpt lat="43.56827" lon="6.49299">
        <ele>372.65</ele>
        <time>2016-02-26T07:26:41Z</time>
      </trkpt>
      <trkpt lat="43.56828" lon="6.49294">
        <ele>373.13</ele>
        <time>2016-02-26T07:26:44Z</time>
      </trkpt>
      <trkpt lat="43.56827" lon="6.49291">
        <ele>373.61</ele>
        <time>2016-02-26T07:26:46Z</time>
      </trkpt>
      <trkpt lat="43.56828" lon="6.49277">
        <ele>375.05</ele>
        <time>2016-02-26T07:26:54Z</time>
      </trkpt>
      <trkpt lat="43.5683" lon="6.49264">
        <ele>376.49</ele>
        <time>2016-02-26T07:27:01Z</time>
      </trkpt>
      <trkpt lat="43.5683" lon="6.4924">
        <ele>378.42</ele>
        <time>2016-02-26T07:27:15Z</time>
      </trkpt>
      <trkpt lat="43.5683" lon="6.4922">
        <ele>380.34</ele>
        <time>2016-02-26T07:27:26Z</time>
      </trkpt>
      <trkpt lat="43.56827" lon="6.49202">
        <ele>381.78</ele>
        <time>2016-02-26T07:27:38Z</time>
      </trkpt>
      <trkpt lat="43.56828" lon="6.49196">
        <ele>382.26</ele>
        <time>2016-02-26T07:27:46Z</time>
      </trkpt>
      <trkpt lat="43.56824" lon="6.49173">
        <ele>384.18</ele>
        <time>2016-02-26T07:27:58Z</time>
      </trkpt>
      <trkpt lat="43.56823" lon="6.49171">
        <ele>384.18</ele>
        <time>2016-02-26T07:28:00Z</time>
      </trkpt>
      <trkpt lat="43.5681" lon="6.4915">
        <ele>386.11</ele>
        <time>2016-02-26T07:28:15Z</time>
      </trkpt>
      <trkpt lat="43.56797" lon="6.49142">
        <ele>387.55</ele>
        <time>2016-02-26T07:28:26Z</time>
      </trkpt>
      <trkpt lat="43.56784" lon="6.49137">
        <ele>388.51</ele>
        <time>2016-02-26T07:28:37Z</time>
      </trkpt>
      <trkpt lat="43.56778" lon="6.49133">
        <ele>389.47</ele>
        <time>2016-02-26T07:28:41Z</time>
      </trkpt>
      <trkpt lat="43.56774" lon="6.4913">
        <ele>389.47</ele>
        <time>2016-02-26T07:28:44Z</time>
      </trkpt>
      <trkpt lat="43.56765" lon="6.49113">
        <ele>391.87</ele>
        <time>2016-02-26T07:28:57Z</time>
      </trkpt>
      <trkpt lat="43.56764" lon="6.49103">
        <ele>392.36</ele>
        <time>2016-02-26T07:29:04Z</time>
      </trkpt>
      <trkpt lat="43.56764" lon="6.49097">
        <ele>392.84</ele>
        <time>2016-02-26T07:29:08Z</time>
      </trkpt>
      <trkpt lat="43.56764" lon="6.49083">
        <ele>393.8</ele>
        <time>2016-02-26T07:29:16Z</time>
      </trkpt>
      <trkpt lat="43.56774" lon="6.49058">
        <ele>395.24</ele>
        <time>2016-02-26T07:29:30Z</time>
      </trkpt>
      <trkpt lat="43.56782" lon="6.49045">
        <ele>396.2</ele>
        <time>2016-02-26T07:29:39Z</time>
      </trkpt>
      <trkpt lat="43.56789" lon="6.49037">
        <ele>396.68</ele>
        <time>2016-02-26T07:29:48Z</time>
      </trkpt>
      <trkpt lat="43.56799" lon="6.49029">
        <ele>397.64</ele>
        <time>2016-02-26T07:30:04Z</time>
      </trkpt>
      <trkpt lat="43.56807" lon="6.49024">
        <ele>398.6</ele>
        <time>2016-02-26T07:30:12Z</time>
      </trkpt>
      <trkpt lat="43.5682" lon="6.49014">
        <ele>400.05</ele>
        <time>2016-02-26T07:30:26Z</time>
      </trkpt>
      <trkpt lat="43.56833" lon="6.49">
        <ele>401.49</ele>
        <time>2016-02-26T07:30:39Z</time>
      </trkpt>
      <trkpt lat="43.56838" lon="6.48989">
        <ele>402.93</ele>
        <time>2016-02-26T07:30:46Z</time>
      </trkpt>
      <trkpt lat="43.56839" lon="6.48986">
        <ele>402.93</ele>
        <time>2016-02-26T07:30:48Z</time>
      </trkpt>
      <trkpt lat="43.56849" lon="6.48958">
        <ele>405.33</ele>
        <time>2016-02-26T07:31:03Z</time>
      </trkpt>
      <trkpt lat="43.56852" lon="6.48938">
        <ele>407.74</ele>
        <time>2016-02-26T07:31:14Z</time>
      </trkpt>
      <trkpt lat="43.56854" lon="6.48909">
        <ele>410.14</ele>
        <time>2016-02-26T07:31:31Z</time>
      </trkpt>
      <trkpt lat="43.56848" lon="6.48898">
        <ele>410.62</ele>
        <time>2016-02-26T07:31:41Z</time>
      </trkpt>
      <trkpt lat="43.56843" lon="6.48892">
        <ele>411.1</ele>
        <time>2016-02-26T07:31:46Z</time>
      </trkpt>
      <trkpt lat="43.56842" lon="6.4889">
        <ele>411.58</ele>
        <time>2016-02-26T07:31:48Z</time>
      </trkpt>
      <trkpt lat="43.56838" lon="6.48884">
        <ele>412.06</ele>
        <time>2016-02-26T07:31:54Z</time>
      </trkpt>
      <trkpt lat="43.56834" lon="6.48882">
        <ele>412.54</ele>
        <time>2016-02-26T07:31:57Z</time>
      </trkpt>
      <trkpt lat="43.56832" lon="6.48879">
        <ele>413.02</ele>
        <time>2016-02-26T07:31:59Z</time>
      </trkpt>
      <trkpt lat="43.56824" lon="6.4887">
        <ele>414.47</ele>
        <time>2016-02-26T07:32:08Z</time>
      </trkpt>
      <trkpt lat="43.5682" lon="6.48866">
        <ele>414.95</ele>
        <time>2016-02-26T07:32:12Z</time>
      </trkpt>
      <trkpt lat="43.56814" lon="6.4886">
        <ele>415.91</ele>
        <time>2016-02-26T07:32:18Z</time>
      </trkpt>
      <trkpt lat="43.568" lon="6.48851">
        <ele>418.79</ele>
        <time>2016-02-26T07:32:32Z</time>
      </trkpt>
      <trkpt lat="43.56784" lon="6.48841">
        <ele>421.19</ele>
        <time>2016-02-26T07:32:45Z</time>
      </trkpt>
      <trkpt lat="43.56769" lon="6.48833">
        <ele>422.64</ele>
        <time>2016-02-26T07:32:58Z</time>
      </trkpt>
      <trkpt lat="43.56763" lon="6.48833">
        <ele>423.12</ele>
        <time>2016-02-26T07:33:02Z</time>
      </trkpt>
      <trkpt lat="43.5676" lon="6.48831">
        <ele>423.6</ele>
        <time>2016-02-26T07:33:05Z</time>
      </trkpt>
      <trkpt lat="43.56756" lon="6.48829">
        <ele>424.08</ele>
        <time>2016-02-26T07:33:08Z</time>
      </trkpt>
      <trkpt lat="43.56753" lon="6.48828">
        <ele>424.08</ele>
        <time>2016-02-26T07:33:11Z</time>
      </trkpt>
      <trkpt lat="43.5675" lon="6.48825">
        <ele>424.56</ele>
        <time>2016-02-26T07:33:14Z</time>
      </trkpt>
      <trkpt lat="43.56739" lon="6.48822">
        <ele>426.48</ele>
        <time>2016-02-26T07:33:23Z</time>
      </trkpt>
      <trkpt lat="43.56733" lon="6.4882">
        <ele>427.44</ele>
        <time>2016-02-26T07:33:28Z</time>
      </trkpt>
      <trkpt lat="43.56709" lon="6.48812">
        <ele>430.33</ele>
        <time>2016-02-26T07:33:45Z</time>
      </trkpt>
      <trkpt lat="43.56701" lon="6.48807">
        <ele>431.29</ele>
        <time>2016-02-26T07:33:52Z</time>
      </trkpt>
      <trkpt lat="43.56698" lon="6.48807">
        <ele>431.77</ele>
        <time>2016-02-26T07:33:55Z</time>
      </trkpt>
      <trkpt lat="43.56693" lon="6.48806">
        <ele>432.25</ele>
        <time>2016-02-26T07:33:59Z</time>
      </trkpt>
      <trkpt lat="43.56686" lon="6.48804">
        <ele>433.21</ele>
        <time>2016-02-26T07:34:04Z</time>
      </trkpt>
      <trkpt lat="43.56678" lon="6.48801">
        <ele>434.17</ele>
        <time>2016-02-26T07:34:10Z</time>
      </trkpt>
      <trkpt lat="43.56667" lon="6.48799">
        <ele>435.61</ele>
        <time>2016-02-26T07:34:18Z</time>
      </trkpt>
      <trkpt lat="43.56662" lon="6.48797">
        <ele>436.1</ele>
        <time>2016-02-26T07:34:22Z</time>
      </trkpt>
      <trkpt lat="43.56658" lon="6.48795">
        <ele>436.58</ele>
        <time>2016-02-26T07:34:25Z</time>
      </trkpt>
      <trkpt lat="43.56652" lon="6.48794">
        <ele>437.54</ele>
        <time>2016-02-26T07:34:31Z</time>
      </trkpt>
      <trkpt lat="43.56644" lon="6.48793">
        <ele>438.5</ele>
        <time>2016-02-26T07:34:36Z</time>
      </trkpt>
      <trkpt lat="43.56636" lon="6.48792">
        <ele>438.98</ele>
        <time>2016-02-26T07:34:41Z</time>
      </trkpt>
      <trkpt lat="43.56628" lon="6.48789">
        <ele>439.94</ele>
        <time>2016-02-26T07:34:47Z</time>
      </trkpt>
      <trkpt lat="43.5661" lon="6.48786">
        <ele>441.86</ele>
        <time>2016-02-26T07:35:00Z</time>
      </trkpt>
      <trkpt lat="43.56591" lon="6.4878">
        <ele>443.79</ele>
        <time>2016-02-26T07:35:14Z</time>
      </trkpt>
      <trkpt lat="43.56587" lon="6.48776">
        <ele>444.75</ele>
        <time>2016-02-26T07:35:18Z</time>
      </trkpt>
      <trkpt lat="43.56581" lon="6.48769">
        <ele>445.71</ele>
        <time>2016-02-26T07:35:33Z</time>
      </trkpt>
      <trkpt lat="43.56577" lon="6.48769">
        <ele>446.19</ele>
        <time>2016-02-26T07:35:48Z</time>
      </trkpt>
      <trkpt lat="43.56562" lon="6.48775">
        <ele>447.15</ele>
        <time>2016-02-26T07:36:02Z</time>
      </trkpt>
      <trkpt lat="43.56553" lon="6.48775">
        <ele>448.11</ele>
        <time>2016-02-26T07:36:12Z</time>
      </trkpt>
      <trkpt lat="43.56549" lon="6.48773">
        <ele>448.59</ele>
        <time>2016-02-26T07:36:16Z</time>
      </trkpt>
      <trkpt lat="43.56544" lon="6.48772">
        <ele>449.07</ele>
        <time>2016-02-26T07:36:20Z</time>
      </trkpt>
      <trkpt lat="43.5653" lon="6.48765">
        <ele>450.03</ele>
        <time>2016-02-26T07:36:32Z</time>
      </trkpt>
      <trkpt lat="43.56525" lon="6.48761">
        <ele>450.52</ele>
        <time>2016-02-26T07:36:36Z</time>
      </trkpt>
      <trkpt lat="43.56515" lon="6.48749">
        <ele>451.96</ele>
        <time>2016-02-26T07:36:46Z</time>
      </trkpt>
      <trkpt lat="43.56502" lon="6.48735">
        <ele>453.88</ele>
        <time>2016-02-26T07:37:00Z</time>
      </trkpt>
      <trkpt lat="43.56489" lon="6.4872">
        <ele>454.36</ele>
        <time>2016-02-26T07:37:14Z</time>
      </trkpt>
      <trkpt lat="43.56481" lon="6.48705">
        <ele>454.36</ele>
        <time>2016-02-26T07:37:26Z</time>
      </trkpt>
      <trkpt lat="43.56477" lon="6.48698">
        <ele>454.84</ele>
        <time>2016-02-26T07:37:31Z</time>
      </trkpt>
      <trkpt lat="43.56473" lon="6.48689">
        <ele>454.84</ele>
        <time>2016-02-26T07:37:37Z</time>
      </trkpt>
      <trkpt lat="43.56463" lon="6.48674">
        <ele>454.84</ele>
        <time>2016-02-26T07:37:49Z</time>
      </trkpt>
      <trkpt lat="43.56461" lon="6.48664">
        <ele>455.32</ele>
        <time>2016-02-26T07:37:55Z</time>
      </trkpt>
      <trkpt lat="43.56455" lon="6.48646">
        <ele>455.32</ele>
        <time>2016-02-26T07:38:07Z</time>
      </trkpt>
      <trkpt lat="43.56451" lon="6.48633">
        <ele>456.28</ele>
        <time>2016-02-26T07:38:16Z</time>
      </trkpt>
      <trkpt lat="43.56443" lon="6.48612">
        <ele>456.76</ele>
        <time>2016-02-26T07:38:31Z</time>
      </trkpt>
      <trkpt lat="43.56442" lon="6.4861">
        <ele>456.76</ele>
        <time>2016-02-26T07:38:32Z</time>
      </trkpt>
      <trkpt lat="43.56436" lon="6.48602">
        <ele>456.28</ele>
        <time>2016-02-26T07:38:39Z</time>
      </trkpt>
      <trkpt lat="43.56429" lon="6.48593">
        <ele>455.8</ele>
        <time>2016-02-26T07:38:46Z</time>
      </trkpt>
      <trkpt lat="43.56412" lon="6.4858">
        <ele>454.84</ele>
        <time>2016-02-26T07:39:00Z</time>
      </trkpt>
      <trkpt lat="43.564" lon="6.48576">
        <ele>454.84</ele>
        <time>2016-02-26T07:39:09Z</time>
      </trkpt>
      <trkpt lat="43.56392" lon="6.48573">
        <ele>455.32</ele>
        <time>2016-02-26T07:39:24Z</time>
      </trkpt>
      <trkpt lat="43.56379" lon="6.4857">
        <ele>454.36</ele>
        <time>2016-02-26T07:39:37Z</time>
      </trkpt>
      <trkpt lat="43.56371" lon="6.48569">
        <ele>454.84</ele>
        <time>2016-02-26T07:39:44Z</time>
      </trkpt>
      <trkpt lat="43.56366" lon="6.48568">
        <ele>454.36</ele>
        <time>2016-02-26T07:39:48Z</time>
      </trkpt>
      <trkpt lat="43.5636" lon="6.48568">
        <ele>454.84</ele>
        <time>2016-02-26T07:39:53Z</time>
      </trkpt>
      <trkpt lat="43.56352" lon="6.48567">
        <ele>454.84</ele>
        <time>2016-02-26T07:39:59Z</time>
      </trkpt>
      <trkpt lat="43.56333" lon="6.48559">
        <ele>455.32</ele>
        <time>2016-02-26T07:40:12Z</time>
      </trkpt>
      <trkpt lat="43.56318" lon="6.4855">
        <ele>456.28</ele>
        <time>2016-02-26T07:40:24Z</time>
      </trkpt>
      <trkpt lat="43.56308" lon="6.48543">
        <ele>457.24</ele>
        <time>2016-02-26T07:40:33Z</time>
      </trkpt>
      <trkpt lat="43.56296" lon="6.48536">
        <ele>457.72</ele>
        <time>2016-02-26T07:40:44Z</time>
      </trkpt>
      <trkpt lat="43.56293" lon="6.48533">
        <ele>458.21</ele>
        <time>2016-02-26T07:40:47Z</time>
      </trkpt>
      <trkpt lat="43.56278" lon="6.48525">
        <ele>457.72</ele>
        <time>2016-02-26T07:40:59Z</time>
      </trkpt>
      <trkpt lat="43.56262" lon="6.48508">
        <ele>455.8</ele>
        <time>2016-02-26T07:41:15Z</time>
      </trkpt>
      <trkpt lat="43.56252" lon="6.48489">
        <ele>454.36</ele>
        <time>2016-02-26T07:41:27Z</time>
      </trkpt>
      <trkpt lat="43.5624" lon="6.4847">
        <ele>452.92</ele>
        <time>2016-02-26T07:41:43Z</time>
      </trkpt>
      <trkpt lat="43.5624" lon="6.48469">
        <ele>452.44</ele>
        <time>2016-02-26T07:41:44Z</time>
      </trkpt>
      <trkpt lat="43.56238" lon="6.4846">
        <ele>452.92</ele>
        <time>2016-02-26T07:41:49Z</time>
      </trkpt>
      <trkpt lat="43.56231" lon="6.48442">
        <ele>452.44</ele>
        <time>2016-02-26T07:42:03Z</time>
      </trkpt>
      <trkpt lat="43.56231" lon="6.48442">
        <ele>452.44</ele>
        <time>2016-02-26T07:42:04Z</time>
      </trkpt>
      <trkpt lat="43.56225" lon="6.48439">
        <ele>452.44</ele>
        <time>2016-02-26T07:42:11Z</time>
      </trkpt>
      <trkpt lat="43.56219" lon="6.48436">
        <ele>452.44</ele>
        <time>2016-02-26T07:42:20Z</time>
      </trkpt>
      <trkpt lat="43.56216" lon="6.48438">
        <ele>452.44</ele>
        <time>2016-02-26T07:42:36Z</time>
      </trkpt>
      <trkpt lat="43.56217" lon="6.48436">
        <ele>452.92</ele>
        <time>2016-02-26T07:42:39Z</time>
      </trkpt>
      <trkpt lat="43.56217" lon="6.48435">
        <ele>452.92</ele>
        <time>2016-02-26T07:42:54Z</time>
      </trkpt>
      <trkpt lat="43.56216" lon="6.48435">
        <ele>452.44</ele>
        <time>2016-02-26T07:43:02Z</time>
      </trkpt>
      <trkpt lat="43.56213" lon="6.48432">
        <ele>452.92</ele>
        <time>2016-02-26T07:43:06Z</time>
      </trkpt>
      <trkpt lat="43.56199" lon="6.48419">
        <ele>453.88</ele>
        <time>2016-02-26T07:43:20Z</time>
      </trkpt>
      <trkpt lat="43.56197" lon="6.48415">
        <ele>454.36</ele>
        <time>2016-02-26T07:43:25Z</time>
      </trkpt>
      <trkpt lat="43.56184" lon="6.48407">
        <ele>455.8</ele>
        <time>2016-02-26T07:43:34Z</time>
      </trkpt>
      <trkpt lat="43.56169" lon="6.48414">
        <ele>457.72</ele>
        <time>2016-02-26T07:43:45Z</time>
      </trkpt>
      <trkpt lat="43.56168" lon="6.48416">
        <ele>457.72</ele>
        <time>2016-02-26T07:43:47Z</time>
      </trkpt>
      <trkpt lat="43.56163" lon="6.48419">
        <ele>458.69</ele>
        <time>2016-02-26T07:43:51Z</time>
      </trkpt>
      <trkpt lat="43.56157" lon="6.48421">
        <ele>459.17</ele>
        <time>2016-02-26T07:43:56Z</time>
      </trkpt>
      <trkpt lat="43.56145" lon="6.4843">
        <ele>460.61</ele>
        <time>2016-02-26T07:44:06Z</time>
      </trkpt>
      <trkpt lat="43.56131" lon="6.48434">
        <ele>462.53</ele>
        <time>2016-02-26T07:44:17Z</time>
      </trkpt>
      <trkpt lat="43.56111" lon="6.48444">
        <ele>463.97</ele>
        <time>2016-02-26T07:44:32Z</time>
      </trkpt>
      <trkpt lat="43.56101" lon="6.48448">
        <ele>464.45</ele>
        <time>2016-02-26T07:44:45Z</time>
      </trkpt>
      <trkpt lat="43.56096" lon="6.48453">
        <ele>464.45</ele>
        <time>2016-02-26T07:45:03Z</time>
      </trkpt>
      <trkpt lat="43.56093" lon="6.48449">
        <ele>465.42</ele>
        <time>2016-02-26T07:45:14Z</time>
      </trkpt>
      <trkpt lat="43.56094" lon="6.48451">
        <ele>464.45</ele>
        <time>2016-02-26T07:45:24Z</time>
      </trkpt>
      <trkpt lat="43.56094" lon="6.48451">
        <ele>464.45</ele>
        <time>2016-02-26T07:45:28Z</time>
      </trkpt>
      <trkpt lat="43.56092" lon="6.48454">
        <ele>464.45</ele>
        <time>2016-02-26T07:45:31Z</time>
      </trkpt>
      <trkpt lat="43.5608" lon="6.48464">
        <ele>464.93</ele>
        <time>2016-02-26T07:45:42Z</time>
      </trkpt>
      <trkpt lat="43.56069" lon="6.48471">
        <ele>465.42</ele>
        <time>2016-02-26T07:45:51Z</time>
      </trkpt>
      <trkpt lat="43.56062" lon="6.48471">
        <ele>465.9</ele>
        <time>2016-02-26T07:45:56Z</time>
      </trkpt>
      <trkpt lat="43.56057" lon="6.48471">
        <ele>465.9</ele>
        <time>2016-02-26T07:46:11Z</time>
      </trkpt>
      <trkpt lat="43.56056" lon="6.48471">
        <ele>465.9</ele>
        <time>2016-02-26T07:46:12Z</time>
      </trkpt>
      <trkpt lat="43.56053" lon="6.48469">
        <ele>465.9</ele>
        <time>2016-02-26T07:46:15Z</time>
      </trkpt>
      <trkpt lat="43.56049" lon="6.48468">
        <ele>465.42</ele>
        <time>2016-02-26T07:46:18Z</time>
      </trkpt>
      <trkpt lat="43.5604" lon="6.48462">
        <ele>464.93</ele>
        <time>2016-02-26T07:46:24Z</time>
      </trkpt>
      <trkpt lat="43.56022" lon="6.48458">
        <ele>464.45</ele>
        <time>2016-02-26T07:46:37Z</time>
      </trkpt>
      <trkpt lat="43.56002" lon="6.48452">
        <ele>463.01</ele>
        <time>2016-02-26T07:46:50Z</time>
      </trkpt>
      <trkpt lat="43.55986" lon="6.48447">
        <ele>461.57</ele>
        <time>2016-02-26T07:47:02Z</time>
      </trkpt>
      <trkpt lat="43.55975" lon="6.48445">
        <ele>460.13</ele>
        <time>2016-02-26T07:47:13Z</time>
      </trkpt>
      <trkpt lat="43.5597" lon="6.48444">
        <ele>459.65</ele>
        <time>2016-02-26T07:47:17Z</time>
      </trkpt>
      <trkpt lat="43.55966" lon="6.48443">
        <ele>459.65</ele>
        <time>2016-02-26T07:47:20Z</time>
      </trkpt>
      <trkpt lat="43.5595" lon="6.48444">
        <ele>458.21</ele>
        <time>2016-02-26T07:47:31Z</time>
      </trkpt>
      <trkpt lat="43.55936" lon="6.48454">
        <ele>456.76</ele>
        <time>2016-02-26T07:47:44Z</time>
      </trkpt>
      <trkpt lat="43.5593" lon="6.48457">
        <ele>456.28</ele>
        <time>2016-02-26T07:47:56Z</time>
      </trkpt>
      <trkpt lat="43.55931" lon="6.48457">
        <ele>456.76</ele>
        <time>2016-02-26T07:48:10Z</time>
      </trkpt>
      <trkpt lat="43.55929" lon="6.48458">
        <ele>456.28</ele>
        <time>2016-02-26T07:48:12Z</time>
      </trkpt>
      <trkpt lat="43.55922" lon="6.48464">
        <ele>455.8</ele>
        <time>2016-02-26T07:48:19Z</time>
      </trkpt>
      <trkpt lat="43.5591" lon="6.4847">
        <ele>454.84</ele>
        <time>2016-02-26T07:48:29Z</time>
      </trkpt>
      <trkpt lat="43.55894" lon="6.4848">
        <ele>453.4</ele>
        <time>2016-02-26T07:48:42Z</time>
      </trkpt>
      <trkpt lat="43.55892" lon="6.48482">
        <ele>452.92</ele>
        <time>2016-02-26T07:48:45Z</time>
      </trkpt>
      <trkpt lat="43.55876" lon="6.48488">
        <ele>451.96</ele>
        <time>2016-02-26T07:48:57Z</time>
      </trkpt>
      <trkpt lat="43.55863" lon="6.48492">
        <ele>451</ele>
        <time>2016-02-26T07:49:05Z</time>
      </trkpt>
      <trkpt lat="43.55845" lon="6.48495">
        <ele>450.03</ele>
        <time>2016-02-26T07:49:18Z</time>
      </trkpt>
      <trkpt lat="43.55824" lon="6.485">
        <ele>449.07</ele>
        <time>2016-02-26T07:49:34Z</time>
      </trkpt>
      <trkpt lat="43.55818" lon="6.48502">
        <ele>448.59</ele>
        <time>2016-02-26T07:49:39Z</time>
      </trkpt>
      <trkpt lat="43.55815" lon="6.48502">
        <ele>448.11</ele>
        <time>2016-02-26T07:49:42Z</time>
      </trkpt>
      <trkpt lat="43.55807" lon="6.48502">
        <ele>448.11</ele>
        <time>2016-02-26T07:49:47Z</time>
      </trkpt>
      <trkpt lat="43.55792" lon="6.48501">
        <ele>447.15</ele>
        <time>2016-02-26T07:49:58Z</time>
      </trkpt>
      <trkpt lat="43.55779" lon="6.48504">
        <ele>446.67</ele>
        <time>2016-02-26T07:50:12Z</time>
      </trkpt>
      <trkpt lat="43.55779" lon="6.48506">
        <ele>447.15</ele>
        <time>2016-02-26T07:50:30Z</time>
      </trkpt>
      <trkpt lat="43.55778" lon="6.48507">
        <ele>447.15</ele>
        <time>2016-02-26T07:50:42Z</time>
      </trkpt>
      <trkpt lat="43.55777" lon="6.48505">
        <ele>447.15</ele>
        <time>2016-02-26T07:50:59Z</time>
      </trkpt>
      <trkpt lat="43.55775" lon="6.48507">
        <ele>447.15</ele>
        <time>2016-02-26T07:51:19Z</time>
      </trkpt>
      <trkpt lat="43.5577" lon="6.48505">
        <ele>446.67</ele>
        <time>2016-02-26T07:51:27Z</time>
      </trkpt>
      <trkpt lat="43.55762" lon="6.48507">
        <ele>446.67</ele>
        <time>2016-02-26T07:51:42Z</time>
      </trkpt>
      <trkpt lat="43.55762" lon="6.48508">
        <ele>446.67</ele>
        <time>2016-02-26T07:51:54Z</time>
      </trkpt>
      <trkpt lat="43.55761" lon="6.4851">
        <ele>447.15</ele>
        <time>2016-02-26T07:52:10Z</time>
      </trkpt>
      <trkpt lat="43.55761" lon="6.48508">
        <ele>446.67</ele>
        <time>2016-02-26T07:52:19Z</time>
      </trkpt>
      <trkpt lat="43.55751" lon="6.48507">
        <ele>446.67</ele>
        <time>2016-02-26T07:52:28Z</time>
      </trkpt>
      <trkpt lat="43.55734" lon="6.48506">
        <ele>446.19</ele>
        <time>2016-02-26T07:52:41Z</time>
      </trkpt>
      <trkpt lat="43.55712" lon="6.48503">
        <ele>444.27</ele>
        <time>2016-02-26T07:52:58Z</time>
      </trkpt>
      <trkpt lat="43.55695" lon="6.48497">
        <ele>442.82</ele>
        <time>2016-02-26T07:53:09Z</time>
      </trkpt>
      <trkpt lat="43.55694" lon="6.48496">
        <ele>442.82</ele>
        <time>2016-02-26T07:53:10Z</time>
      </trkpt>
      <trkpt lat="43.55677" lon="6.48488">
        <ele>440.42</ele>
        <time>2016-02-26T07:53:24Z</time>
      </trkpt>
      <trkpt lat="43.55663" lon="6.48485">
        <ele>439.46</ele>
        <time>2016-02-26T07:53:35Z</time>
      </trkpt>
      <trkpt lat="43.55643" lon="6.4848">
        <ele>438.5</ele>
        <time>2016-02-26T07:53:51Z</time>
      </trkpt>
      <trkpt lat="43.55623" lon="6.48479">
        <ele>437.54</ele>
        <time>2016-02-26T07:54:04Z</time>
      </trkpt>
      <trkpt lat="43.55617" lon="6.48479">
        <ele>437.06</ele>
        <time>2016-02-26T07:54:10Z</time>
      </trkpt>
      <trkpt lat="43.55615" lon="6.48479">
        <ele>437.06</ele>
        <time>2016-02-26T07:54:12Z</time>
      </trkpt>
      <trkpt lat="43.55607" lon="6.48476">
        <ele>437.06</ele>
        <time>2016-02-26T07:54:18Z</time>
      </trkpt>
      <trkpt lat="43.55587" lon="6.48476">
        <ele>436.1</ele>
        <time>2016-02-26T07:54:30Z</time>
      </trkpt>
      <trkpt lat="43.55564" lon="6.48474">
        <ele>433.69</ele>
        <time>2016-02-26T07:54:46Z</time>
      </trkpt>
      <trkpt lat="43.55543" lon="6.48475">
        <ele>432.25</ele>
        <time>2016-02-26T07:55:01Z</time>
      </trkpt>
      <trkpt lat="43.55519" lon="6.48473">
        <ele>431.29</ele>
        <time>2016-02-26T07:55:16Z</time>
      </trkpt>
      <trkpt lat="43.55491" lon="6.48474">
        <ele>430.33</ele>
        <time>2016-02-26T07:55:33Z</time>
      </trkpt>
      <trkpt lat="43.55474" lon="6.48477">
        <ele>428.89</ele>
        <time>2016-02-26T07:55:46Z</time>
      </trkpt>
      <trkpt lat="43.55467" lon="6.48478">
        <ele>428.4</ele>
        <time>2016-02-26T07:55:51Z</time>
      </trkpt>
      <trkpt lat="43.55453" lon="6.48476">
        <ele>427.44</ele>
        <time>2016-02-26T07:56:00Z</time>
      </trkpt>
      <trkpt lat="43.55443" lon="6.48478">
        <ele>426.96</ele>
        <time>2016-02-26T07:56:06Z</time>
      </trkpt>
      <trkpt lat="43.55433" lon="6.48481">
        <ele>426.48</ele>
        <time>2016-02-26T07:56:14Z</time>
      </trkpt>
      <trkpt lat="43.5541" lon="6.48479">
        <ele>425.52</ele>
        <time>2016-02-26T07:56:28Z</time>
      </trkpt>
      <trkpt lat="43.55393" lon="6.4847">
        <ele>424.56</ele>
        <time>2016-02-26T07:56:40Z</time>
      </trkpt>
      <trkpt lat="43.55379" lon="6.48449">
        <ele>424.08</ele>
        <time>2016-02-26T07:56:53Z</time>
      </trkpt>
      <trkpt lat="43.55375" lon="6.48439">
        <ele>423.6</ele>
        <time>2016-02-26T07:56:59Z</time>
      </trkpt>
      <trkpt lat="43.55373" lon="6.48432">
        <ele>423.12</ele>
        <time>2016-02-26T07:57:03Z</time>
      </trkpt>
      <trkpt lat="43.55371" lon="6.48425">
        <ele>423.12</ele>
        <time>2016-02-26T07:57:06Z</time>
      </trkpt>
      <trkpt lat="43.55367" lon="6.48406">
        <ele>422.16</ele>
        <time>2016-02-26T07:57:17Z</time>
      </trkpt>
      <trkpt lat="43.55363" lon="6.48396">
        <ele>422.16</ele>
        <time>2016-02-26T07:57:23Z</time>
      </trkpt>
      <trkpt lat="43.55362" lon="6.48393">
        <ele>421.68</ele>
        <time>2016-02-26T07:57:25Z</time>
      </trkpt>
      <trkpt lat="43.55354" lon="6.48373">
        <ele>421.19</ele>
        <time>2016-02-26T07:57:39Z</time>
      </trkpt>
      <trkpt lat="43.55347" lon="6.48361">
        <ele>420.23</ele>
        <time>2016-02-26T07:57:47Z</time>
      </trkpt>
      <trkpt lat="43.5533" lon="6.48342">
        <ele>419.27</ele>
        <time>2016-02-26T07:57:59Z</time>
      </trkpt>
      <trkpt lat="43.55321" lon="6.48318">
        <ele>417.35</ele>
        <time>2016-02-26T07:58:14Z</time>
      </trkpt>
      <trkpt lat="43.55316" lon="6.48303">
        <ele>415.91</ele>
        <time>2016-02-26T07:58:22Z</time>
      </trkpt>
      <trkpt lat="43.5532" lon="6.48278">
        <ele>413.98</ele>
        <time>2016-02-26T07:58:35Z</time>
      </trkpt>
      <trkpt lat="43.55322" lon="6.48272">
        <ele>413.98</ele>
        <time>2016-02-26T07:58:38Z</time>
      </trkpt>
      <trkpt lat="43.55321" lon="6.48268">
        <ele>413.5</ele>
        <time>2016-02-26T07:58:40Z</time>
      </trkpt>
      <trkpt lat="43.55323" lon="6.48259">
        <ele>413.02</ele>
        <time>2016-02-26T07:58:46Z</time>
      </trkpt>
      <trkpt lat="43.55326" lon="6.48251">
        <ele>413.02</ele>
        <time>2016-02-26T07:58:58Z</time>
      </trkpt>
      <trkpt lat="43.55327" lon="6.48245">
        <ele>413.02</ele>
        <time>2016-02-26T07:59:01Z</time>
      </trkpt>
      <trkpt lat="43.55338" lon="6.48222">
        <ele>412.54</ele>
        <time>2016-02-26T07:59:14Z</time>
      </trkpt>
      <trkpt lat="43.55342" lon="6.48215">
        <ele>412.54</ele>
        <time>2016-02-26T07:59:18Z</time>
      </trkpt>
      <trkpt lat="43.55342" lon="6.48208">
        <ele>412.54</ele>
        <time>2016-02-26T07:59:22Z</time>
      </trkpt>
      <trkpt lat="43.5535" lon="6.48188">
        <ele>412.54</ele>
        <time>2016-02-26T07:59:35Z</time>
      </trkpt>
      <trkpt lat="43.55355" lon="6.48164">
        <ele>411.58</ele>
        <time>2016-02-26T07:59:48Z</time>
      </trkpt>
      <trkpt lat="43.55354" lon="6.48154">
        <ele>411.1</ele>
        <time>2016-02-26T07:59:54Z</time>
      </trkpt>
      <trkpt lat="43.55356" lon="6.48145">
        <ele>410.62</ele>
        <time>2016-02-26T07:59:58Z</time>
      </trkpt>
      <trkpt lat="43.55355" lon="6.48119">
        <ele>409.66</ele>
        <time>2016-02-26T08:00:11Z</time>
      </trkpt>
      <trkpt lat="43.55352" lon="6.48115">
        <ele>409.66</ele>
        <time>2016-02-26T08:00:13Z</time>
      </trkpt>
      <trkpt lat="43.55351" lon="6.48111">
        <ele>409.66</ele>
        <time>2016-02-26T08:00:15Z</time>
      </trkpt>
      <trkpt lat="43.55351" lon="6.48105">
        <ele>409.66</ele>
        <time>2016-02-26T08:00:17Z</time>
      </trkpt>
      <trkpt lat="43.55351" lon="6.48084">
        <ele>408.7</ele>
        <time>2016-02-26T08:00:27Z</time>
      </trkpt>
      <trkpt lat="43.55351" lon="6.48074">
        <ele>408.22</ele>
        <time>2016-02-26T08:00:33Z</time>
      </trkpt>
      <trkpt lat="43.55348" lon="6.48051">
        <ele>407.26</ele>
        <time>2016-02-26T08:00:45Z</time>
      </trkpt>
      <trkpt lat="43.5535" lon="6.48027">
        <ele>405.33</ele>
        <time>2016-02-26T08:00:59Z</time>
      </trkpt>
      <trkpt lat="43.55358" lon="6.48008">
        <ele>404.37</ele>
        <time>2016-02-26T08:01:11Z</time>
      </trkpt>
      <trkpt lat="43.55365" lon="6.47982">
        <ele>403.89</ele>
        <time>2016-02-26T08:01:24Z</time>
      </trkpt>
      <trkpt lat="43.55368" lon="6.4796">
        <ele>403.41</ele>
        <time>2016-02-26T08:01:36Z</time>
      </trkpt>
      <trkpt lat="43.55368" lon="6.47958">
        <ele>403.41</ele>
        <time>2016-02-26T08:01:37Z</time>
      </trkpt>
      <trkpt lat="43.5537" lon="6.47944">
        <ele>402.45</ele>
        <time>2016-02-26T08:01:45Z</time>
      </trkpt>
      <trkpt lat="43.55372" lon="6.47936">
        <ele>401.97</ele>
        <time>2016-02-26T08:01:49Z</time>
      </trkpt>
      <trkpt lat="43.55364" lon="6.47913">
        <ele>401.01</ele>
        <time>2016-02-26T08:02:00Z</time>
      </trkpt>
      <trkpt lat="43.55355" lon="6.47895">
        <ele>400.05</ele>
        <time>2016-02-26T08:02:09Z</time>
      </trkpt>
      <trkpt lat="43.55344" lon="6.47884">
        <ele>399.57</ele>
        <time>2016-02-26T08:02:16Z</time>
      </trkpt>
      <trkpt lat="43.55328" lon="6.47867">
        <ele>398.6</ele>
        <time>2016-02-26T08:02:28Z</time>
      </trkpt>
      <trkpt lat="43.55324" lon="6.47856">
        <ele>397.16</ele>
        <time>2016-02-26T08:02:35Z</time>
      </trkpt>
      <trkpt lat="43.55325" lon="6.47831">
        <ele>395.24</ele>
        <time>2016-02-26T08:02:49Z</time>
      </trkpt>
      <trkpt lat="43.55321" lon="6.47811">
        <ele>394.28</ele>
        <time>2016-02-26T08:03:02Z</time>
      </trkpt>
      <trkpt lat="43.55319" lon="6.47785">
        <ele>393.32</ele>
        <time>2016-02-26T08:03:15Z</time>
      </trkpt>
      <trkpt lat="43.55317" lon="6.47775">
        <ele>393.32</ele>
        <time>2016-02-26T08:03:21Z</time>
      </trkpt>
      <trkpt lat="43.55313" lon="6.47762">
        <ele>392.84</ele>
        <time>2016-02-26T08:03:28Z</time>
      </trkpt>
      <trkpt lat="43.55312" lon="6.47747">
        <ele>392.84</ele>
        <time>2016-02-26T08:03:35Z</time>
      </trkpt>
      <trkpt lat="43.55298" lon="6.4772">
        <ele>391.87</ele>
        <time>2016-02-26T08:03:50Z</time>
      </trkpt>
      <trkpt lat="43.55292" lon="6.47698">
        <ele>391.39</ele>
        <time>2016-02-26T08:04:01Z</time>
      </trkpt>
      <trkpt lat="43.55287" lon="6.4769">
        <ele>391.39</ele>
        <time>2016-02-26T08:04:06Z</time>
      </trkpt>
      <trkpt lat="43.55284" lon="6.47685">
        <ele>389.95</ele>
        <time>2016-02-26T08:04:09Z</time>
      </trkpt>
      <trkpt lat="43.5528" lon="6.47678">
        <ele>388.99</ele>
        <time>2016-02-26T08:04:14Z</time>
      </trkpt>
      <trkpt lat="43.55276" lon="6.47671">
        <ele>388.03</ele>
        <time>2016-02-26T08:04:18Z</time>
      </trkpt>
      <trkpt lat="43.55271" lon="6.47664">
        <ele>387.55</ele>
        <time>2016-02-26T08:04:22Z</time>
      </trkpt>
      <trkpt lat="43.55268" lon="6.47657">
        <ele>386.11</ele>
        <time>2016-02-26T08:04:27Z</time>
      </trkpt>
      <trkpt lat="43.5526" lon="6.47645">
        <ele>384.66</ele>
        <time>2016-02-26T08:04:35Z</time>
      </trkpt>
      <trkpt lat="43.55254" lon="6.47636">
        <ele>383.22</ele>
        <time>2016-02-26T08:04:41Z</time>
      </trkpt>
      <trkpt lat="43.55244" lon="6.47624">
        <ele>381.3</ele>
        <time>2016-02-26T08:04:51Z</time>
      </trkpt>
      <trkpt lat="43.55229" lon="6.47613">
        <ele>378.42</ele>
        <time>2016-02-26T08:05:03Z</time>
      </trkpt>
      <trkpt lat="43.55225" lon="6.47608">
        <ele>377.45</ele>
        <time>2016-02-26T08:05:07Z</time>
      </trkpt>
      <trkpt lat="43.55221" lon="6.47598">
        <ele>376.01</ele>
        <time>2016-02-26T08:05:14Z</time>
      </trkpt>
      <trkpt lat="43.55222" lon="6.47583">
        <ele>374.09</ele>
        <time>2016-02-26T08:05:28Z</time>
      </trkpt>
      <trkpt lat="43.55222" lon="6.47584">
        <ele>374.09</ele>
        <time>2016-02-26T08:05:40Z</time>
      </trkpt>
      <trkpt lat="43.5522" lon="6.47582">
        <ele>374.09</ele>
        <time>2016-02-26T08:05:52Z</time>
      </trkpt>
      <trkpt lat="43.5522" lon="6.47581">
        <ele>373.61</ele>
        <time>2016-02-26T08:06:07Z</time>
      </trkpt>
      <trkpt lat="43.55221" lon="6.47582">
        <ele>373.61</ele>
        <time>2016-02-26T08:06:14Z</time>
      </trkpt>
      <trkpt lat="43.55234" lon="6.47599">
        <ele>373.61</ele>
        <time>2016-02-26T08:06:28Z</time>
      </trkpt>
      <trkpt lat="43.55236" lon="6.47602">
        <ele>373.61</ele>
        <time>2016-02-26T08:06:41Z</time>
      </trkpt>
      <trkpt lat="43.55238" lon="6.47605">
        <ele>373.61</ele>
        <time>2016-02-26T08:06:44Z</time>
      </trkpt>
      <trkpt lat="43.55242" lon="6.4761">
        <ele>373.61</ele>
        <time>2016-02-26T08:06:49Z</time>
      </trkpt>
      <trkpt lat="43.5525" lon="6.47617">
        <ele>373.61</ele>
        <time>2016-02-26T08:06:55Z</time>
      </trkpt>
      <trkpt lat="43.55264" lon="6.47627">
        <ele>373.61</ele>
        <time>2016-02-26T08:07:09Z</time>
      </trkpt>
      <trkpt lat="43.55262" lon="6.47625">
        <ele>373.61</ele>
        <time>2016-02-26T08:07:21Z</time>
      </trkpt>
      <trkpt lat="43.55261" lon="6.47626">
        <ele>373.61</ele>
        <time>2016-02-26T08:07:28Z</time>
      </trkpt>
      <trkpt lat="43.55263" lon="6.47629">
        <ele>373.13</ele>
        <time>2016-02-26T08:07:31Z</time>
      </trkpt>
      <trkpt lat="43.55275" lon="6.4764">
        <ele>373.61</ele>
        <time>2016-02-26T08:07:45Z</time>
      </trkpt>
      <trkpt lat="43.55289" lon="6.47651">
        <ele>374.09</ele>
        <time>2016-02-26T08:07:58Z</time>
      </trkpt>
      <trkpt lat="43.55297" lon="6.47665">
        <ele>375.05</ele>
        <time>2016-02-26T08:08:10Z</time>
      </trkpt>
      <trkpt lat="43.55306" lon="6.47677">
        <ele>376.01</ele>
        <time>2016-02-26T08:08:21Z</time>
      </trkpt>
      <trkpt lat="43.55311" lon="6.47684">
        <ele>376.49</ele>
        <time>2016-02-26T08:08:31Z</time>
      </trkpt>
      <trkpt lat="43.55318" lon="6.47685">
        <ele>378.42</ele>
        <time>2016-02-26T08:08:42Z</time>
      </trkpt>
      <trkpt lat="43.55332" lon="6.47684">
        <ele>380.82</ele>
        <time>2016-02-26T08:08:55Z</time>
      </trkpt>
      <trkpt lat="43.55349" lon="6.47678">
        <ele>383.7</ele>
        <time>2016-02-26T08:09:10Z</time>
      </trkpt>
      <trkpt lat="43.5536" lon="6.4767">
        <ele>386.11</ele>
        <time>2016-02-26T08:09:22Z</time>
      </trkpt>
      <trkpt lat="43.55362" lon="6.47669">
        <ele>386.11</ele>
        <time>2016-02-26T08:09:23Z</time>
      </trkpt>
      <trkpt lat="43.55385" lon="6.47651">
        <ele>388.51</ele>
        <time>2016-02-26T08:09:38Z</time>
      </trkpt>
      <trkpt lat="43.55392" lon="6.47648">
        <ele>389.47</ele>
        <time>2016-02-26T08:09:43Z</time>
      </trkpt>
      <trkpt lat="43.55401" lon="6.47636">
        <ele>391.87</ele>
        <time>2016-02-26T08:09:57Z</time>
      </trkpt>
      <trkpt lat="43.55405" lon="6.47628">
        <ele>393.32</ele>
        <time>2016-02-26T08:10:09Z</time>
      </trkpt>
      <trkpt lat="43.55407" lon="6.47627">
        <ele>393.8</ele>
        <time>2016-02-26T08:10:13Z</time>
      </trkpt>
      <trkpt lat="43.55414" lon="6.47621">
        <ele>395.24</ele>
        <time>2016-02-26T08:10:23Z</time>
      </trkpt>
      <trkpt lat="43.55423" lon="6.47609">
        <ele>397.64</ele>
        <time>2016-02-26T08:10:35Z</time>
      </trkpt>
      <trkpt lat="43.55428" lon="6.47599">
        <ele>398.6</ele>
        <time>2016-02-26T08:10:47Z</time>
      </trkpt>
      <trkpt lat="43.55429" lon="6.47598">
        <ele>398.6</ele>
        <time>2016-02-26T08:10:48Z</time>
      </trkpt>
      <trkpt lat="43.55438" lon="6.47593">
        <ele>401.49</ele>
        <time>2016-02-26T08:11:00Z</time>
      </trkpt>
      <trkpt lat="43.55442" lon="6.47582">
        <ele>402.93</ele>
        <time>2016-02-26T08:11:12Z</time>
      </trkpt>
      <trkpt lat="43.55451" lon="6.47576">
        <ele>404.85</ele>
        <time>2016-02-26T08:11:23Z</time>
      </trkpt>
      <trkpt lat="43.55452" lon="6.47576">
        <ele>404.85</ele>
        <time>2016-02-26T08:11:25Z</time>
      </trkpt>
      <trkpt lat="43.5546" lon="6.47573">
        <ele>405.81</ele>
        <time>2016-02-26T08:11:34Z</time>
      </trkpt>
      <trkpt lat="43.55464" lon="6.47571">
        <ele>406.77</ele>
        <time>2016-02-26T08:11:48Z</time>
      </trkpt>
      <trkpt lat="43.55465" lon="6.47571">
        <ele>406.77</ele>
        <time>2016-02-26T08:11:51Z</time>
      </trkpt>
      <trkpt lat="43.55471" lon="6.4757">
        <ele>407.74</ele>
        <time>2016-02-26T08:12:06Z</time>
      </trkpt>
      <trkpt lat="43.55472" lon="6.47568">
        <ele>408.22</ele>
        <time>2016-02-26T08:12:27Z</time>
      </trkpt>
      <trkpt lat="43.5548" lon="6.47566">
        <ele>409.18</ele>
        <time>2016-02-26T08:12:39Z</time>
      </trkpt>
      <trkpt lat="43.55487" lon="6.47556">
        <ele>410.62</ele>
        <time>2016-02-26T08:12:50Z</time>
      </trkpt>
      <trkpt lat="43.55491" lon="6.47548">
        <ele>411.58</ele>
        <time>2016-02-26T08:12:55Z</time>
      </trkpt>
      <trkpt lat="43.55492" lon="6.47533">
        <ele>413.02</ele>
        <time>2016-02-26T08:13:07Z</time>
      </trkpt>
      <trkpt lat="43.55499" lon="6.47515">
        <ele>413.5</ele>
        <time>2016-02-26T08:13:18Z</time>
      </trkpt>
      <trkpt lat="43.55504" lon="6.47501">
        <ele>414.95</ele>
        <time>2016-02-26T08:13:31Z</time>
      </trkpt>
      <trkpt lat="43.55505" lon="6.47499">
        <ele>414.95</ele>
        <time>2016-02-26T08:13:33Z</time>
      </trkpt>
      <trkpt lat="43.55509" lon="6.47496">
        <ele>415.91</ele>
        <time>2016-02-26T08:13:38Z</time>
      </trkpt>
      <trkpt lat="43.55516" lon="6.47483">
        <ele>416.87</ele>
        <time>2016-02-26T08:13:50Z</time>
      </trkpt>
      <trkpt lat="43.55518" lon="6.47478">
        <ele>418.31</ele>
        <time>2016-02-26T08:14:02Z</time>
      </trkpt>
      <trkpt lat="43.55524" lon="6.47466">
        <ele>419.75</ele>
        <time>2016-02-26T08:14:18Z</time>
      </trkpt>
      <trkpt lat="43.55533" lon="6.47455">
        <ele>420.71</ele>
        <time>2016-02-26T08:14:29Z</time>
      </trkpt>
      <trkpt lat="43.55554" lon="6.47437">
        <ele>422.16</ele>
        <time>2016-02-26T08:14:46Z</time>
      </trkpt>
      <trkpt lat="43.55556" lon="6.47436">
        <ele>422.64</ele>
        <time>2016-02-26T08:15:11Z</time>
      </trkpt>
      <trkpt lat="43.55554" lon="6.47433">
        <ele>422.64</ele>
        <time>2016-02-26T08:15:46Z</time>
      </trkpt>
      <trkpt lat="43.55559" lon="6.47433">
        <ele>423.12</ele>
        <time>2016-02-26T08:16:05Z</time>
      </trkpt>
      <trkpt lat="43.55561" lon="6.47432">
        <ele>425.04</ele>
        <time>2016-02-26T08:16:25Z</time>
      </trkpt>
      <trkpt lat="43.55561" lon="6.4743">
        <ele>424.08</ele>
        <time>2016-02-26T08:16:42Z</time>
      </trkpt>
      <trkpt lat="43.55561" lon="6.4743">
        <ele>424.08</ele>
        <time>2016-02-26T08:16:47Z</time>
      </trkpt>
      <trkpt lat="43.55563" lon="6.47428">
        <ele>424.08</ele>
        <time>2016-02-26T08:16:50Z</time>
      </trkpt>
      <trkpt lat="43.55567" lon="6.47426">
        <ele>424.08</ele>
        <time>2016-02-26T08:16:53Z</time>
      </trkpt>
      <trkpt lat="43.55577" lon="6.47418">
        <ele>425.04</ele>
        <time>2016-02-26T08:17:05Z</time>
      </trkpt>
      <trkpt lat="43.55578" lon="6.47417">
        <ele>425.52</ele>
        <time>2016-02-26T08:17:07Z</time>
      </trkpt>
      <trkpt lat="43.55599" lon="6.47401">
        <ele>426.96</ele>
        <time>2016-02-26T08:17:27Z</time>
      </trkpt>
      <trkpt lat="43.55605" lon="6.47394">
        <ele>427.92</ele>
        <time>2016-02-26T08:17:36Z</time>
      </trkpt>
      <trkpt lat="43.55621" lon="6.47384">
        <ele>429.85</ele>
        <time>2016-02-26T08:17:48Z</time>
      </trkpt>
      <trkpt lat="43.55633" lon="6.47358">
        <ele>431.29</ele>
        <time>2016-02-26T08:18:04Z</time>
      </trkpt>
      <trkpt lat="43.55644" lon="6.47335">
        <ele>432.73</ele>
        <time>2016-02-26T08:18:19Z</time>
      </trkpt>
      <trkpt lat="43.55657" lon="6.47309">
        <ele>434.17</ele>
        <time>2016-02-26T08:18:36Z</time>
      </trkpt>
      <trkpt lat="43.55658" lon="6.47303">
        <ele>434.65</ele>
        <time>2016-02-26T08:18:41Z</time>
      </trkpt>
      <trkpt lat="43.55669" lon="6.47287">
        <ele>436.1</ele>
        <time>2016-02-26T08:18:54Z</time>
      </trkpt>
      <trkpt lat="43.55681" lon="6.47263">
        <ele>437.54</ele>
        <time>2016-02-26T08:19:08Z</time>
      </trkpt>
      <trkpt lat="43.55682" lon="6.47261">
        <ele>437.54</ele>
        <time>2016-02-26T08:19:09Z</time>
      </trkpt>
      <trkpt lat="43.55688" lon="6.47249">
        <ele>438.02</ele>
        <time>2016-02-26T08:19:17Z</time>
      </trkpt>
      <trkpt lat="43.55692" lon="6.47242">
        <ele>438.98</ele>
        <time>2016-02-26T08:19:22Z</time>
      </trkpt>
      <trkpt lat="43.55696" lon="6.47231">
        <ele>438.98</ele>
        <time>2016-02-26T08:19:28Z</time>
      </trkpt>
      <trkpt lat="43.55706" lon="6.47214">
        <ele>440.42</ele>
        <time>2016-02-26T08:19:40Z</time>
      </trkpt>
      <trkpt lat="43.55709" lon="6.47203">
        <ele>441.38</ele>
        <time>2016-02-26T08:19:48Z</time>
      </trkpt>
      <trkpt lat="43.55717" lon="6.47177">
        <ele>442.82</ele>
        <time>2016-02-26T08:20:03Z</time>
      </trkpt>
      <trkpt lat="43.55722" lon="6.47153">
        <ele>444.27</ele>
        <time>2016-02-26T08:20:16Z</time>
      </trkpt>
      <trkpt lat="43.55723" lon="6.47145">
        <ele>444.75</ele>
        <time>2016-02-26T08:20:20Z</time>
      </trkpt>
      <trkpt lat="43.55735" lon="6.47119">
        <ele>446.19</ele>
        <time>2016-02-26T08:20:36Z</time>
      </trkpt>
      <trkpt lat="43.55744" lon="6.47098">
        <ele>447.15</ele>
        <time>2016-02-26T08:20:49Z</time>
      </trkpt>
      <trkpt lat="43.55748" lon="6.47092">
        <ele>448.11</ele>
        <time>2016-02-26T08:21:01Z</time>
      </trkpt>
      <trkpt lat="43.55764" lon="6.47073">
        <ele>449.07</ele>
        <time>2016-02-26T08:21:14Z</time>
      </trkpt>
      <trkpt lat="43.55768" lon="6.47063">
        <ele>449.55</ele>
        <time>2016-02-26T08:21:20Z</time>
      </trkpt>
      <trkpt lat="43.5578" lon="6.47043">
        <ele>451.48</ele>
        <time>2016-02-26T08:21:36Z</time>
      </trkpt>
      <trkpt lat="43.55781" lon="6.47041">
        <ele>451.48</ele>
        <time>2016-02-26T08:21:39Z</time>
      </trkpt>
      <trkpt lat="43.55786" lon="6.47036">
        <ele>451.96</ele>
        <time>2016-02-26T08:21:43Z</time>
      </trkpt>
      <trkpt lat="43.55807" lon="6.47031">
        <ele>452.92</ele>
        <time>2016-02-26T08:21:57Z</time>
      </trkpt>
      <trkpt lat="43.55822" lon="6.47017">
        <ele>454.36</ele>
        <time>2016-02-26T08:22:12Z</time>
      </trkpt>
      <trkpt lat="43.55827" lon="6.47011">
        <ele>454.84</ele>
        <time>2016-02-26T08:22:16Z</time>
      </trkpt>
      <trkpt lat="43.55831" lon="6.47003">
        <ele>454.84</ele>
        <time>2016-02-26T08:22:20Z</time>
      </trkpt>
      <trkpt lat="43.55843" lon="6.46979">
        <ele>456.28</ele>
        <time>2016-02-26T08:22:35Z</time>
      </trkpt>
      <trkpt lat="43.55852" lon="6.46957">
        <ele>457.72</ele>
        <time>2016-02-26T08:22:49Z</time>
      </trkpt>
      <trkpt lat="43.55859" lon="6.46939">
        <ele>458.69</ele>
        <time>2016-02-26T08:23:01Z</time>
      </trkpt>
      <trkpt lat="43.55864" lon="6.46929">
        <ele>459.17</ele>
        <time>2016-02-26T08:23:09Z</time>
      </trkpt>
      <trkpt lat="43.55885" lon="6.46921">
        <ele>460.61</ele>
        <time>2016-02-26T08:23:24Z</time>
      </trkpt>
      <trkpt lat="43.55895" lon="6.4692">
        <ele>461.09</ele>
        <time>2016-02-26T08:23:32Z</time>
      </trkpt>
      <trkpt lat="43.55918" lon="6.46916">
        <ele>463.01</ele>
        <time>2016-02-26T08:23:49Z</time>
      </trkpt>
      <trkpt lat="43.55936" lon="6.4691">
        <ele>463.97</ele>
        <time>2016-02-26T08:24:01Z</time>
      </trkpt>
      <trkpt lat="43.55941" lon="6.46891">
        <ele>465.9</ele>
        <time>2016-02-26T08:24:17Z</time>
      </trkpt>
      <trkpt lat="43.55965" lon="6.46869">
        <ele>467.34</ele>
        <time>2016-02-26T08:24:32Z</time>
      </trkpt>
      <trkpt lat="43.55973" lon="6.46858">
        <ele>468.3</ele>
        <time>2016-02-26T08:24:41Z</time>
      </trkpt>
      <trkpt lat="43.55981" lon="6.46849">
        <ele>469.26</ele>
        <time>2016-02-26T08:24:51Z</time>
      </trkpt>
      <trkpt lat="43.55987" lon="6.46842">
        <ele>469.26</ele>
        <time>2016-02-26T08:24:57Z</time>
      </trkpt>
      <trkpt lat="43.5599" lon="6.46836">
        <ele>469.74</ele>
        <time>2016-02-26T08:25:06Z</time>
      </trkpt>
      <trkpt lat="43.55992" lon="6.46833">
        <ele>470.22</ele>
        <time>2016-02-26T08:25:09Z</time>
      </trkpt>
      <trkpt lat="43.55996" lon="6.46828">
        <ele>470.7</ele>
        <time>2016-02-26T08:25:13Z</time>
      </trkpt>
      <trkpt lat="43.56012" lon="6.46814">
        <ele>472.14</ele>
        <time>2016-02-26T08:25:27Z</time>
      </trkpt>
      <trkpt lat="43.56028" lon="6.46793">
        <ele>473.59</ele>
        <time>2016-02-26T08:25:43Z</time>
      </trkpt>
      <trkpt lat="43.56031" lon="6.46784">
        <ele>474.07</ele>
        <time>2016-02-26T08:25:48Z</time>
      </trkpt>
      <trkpt lat="43.5604" lon="6.46764">
        <ele>475.03</ele>
        <time>2016-02-26T08:25:59Z</time>
      </trkpt>
      <trkpt lat="43.56044" lon="6.46736">
        <ele>475.99</ele>
        <time>2016-02-26T08:26:13Z</time>
      </trkpt>
      <trkpt lat="43.56046" lon="6.46715">
        <ele>476.95</ele>
        <time>2016-02-26T08:26:24Z</time>
      </trkpt>
      <trkpt lat="43.56047" lon="6.46706">
        <ele>477.43</ele>
        <time>2016-02-26T08:26:29Z</time>
      </trkpt>
      <trkpt lat="43.56049" lon="6.46696">
        <ele>477.91</ele>
        <time>2016-02-26T08:26:34Z</time>
      </trkpt>
      <trkpt lat="43.5605" lon="6.46681">
        <ele>478.39</ele>
        <time>2016-02-26T08:26:43Z</time>
      </trkpt>
      <trkpt lat="43.56046" lon="6.4667">
        <ele>478.87</ele>
        <time>2016-02-26T08:26:49Z</time>
      </trkpt>
      <trkpt lat="43.56042" lon="6.46659">
        <ele>479.84</ele>
        <time>2016-02-26T08:26:54Z</time>
      </trkpt>
      <trkpt lat="43.5604" lon="6.46649">
        <ele>480.32</ele>
        <time>2016-02-26T08:27:00Z</time>
      </trkpt>
      <trkpt lat="43.56039" lon="6.46641">
        <ele>480.8</ele>
        <time>2016-02-26T08:27:04Z</time>
      </trkpt>
      <trkpt lat="43.56041" lon="6.46623">
        <ele>483.2</ele>
        <time>2016-02-26T08:27:15Z</time>
      </trkpt>
      <trkpt lat="43.56041" lon="6.4662">
        <ele>483.2</ele>
        <time>2016-02-26T08:27:17Z</time>
      </trkpt>
      <trkpt lat="43.56045" lon="6.46606">
        <ele>485.12</ele>
        <time>2016-02-26T08:27:26Z</time>
      </trkpt>
      <trkpt lat="43.56043" lon="6.46595">
        <ele>486.08</ele>
        <time>2016-02-26T08:27:32Z</time>
      </trkpt>
      <trkpt lat="43.56039" lon="6.46571">
        <ele>488.97</ele>
        <time>2016-02-26T08:27:45Z</time>
      </trkpt>
      <trkpt lat="43.56038" lon="6.46553">
        <ele>491.85</ele>
        <time>2016-02-26T08:27:57Z</time>
      </trkpt>
      <trkpt lat="43.56038" lon="6.46551">
        <ele>491.85</ele>
        <time>2016-02-26T08:27:58Z</time>
      </trkpt>
      <trkpt lat="43.56038" lon="6.46545">
        <ele>492.33</ele>
        <time>2016-02-26T08:28:07Z</time>
      </trkpt>
      <trkpt lat="43.56045" lon="6.46537">
        <ele>492.81</ele>
        <time>2016-02-26T08:28:22Z</time>
      </trkpt>
      <trkpt lat="43.56046" lon="6.46537">
        <ele>492.81</ele>
        <time>2016-02-26T08:28:23Z</time>
      </trkpt>
      <trkpt lat="43.5606" lon="6.46536">
        <ele>493.29</ele>
        <time>2016-02-26T08:28:33Z</time>
      </trkpt>
      <trkpt lat="43.56066" lon="6.46537">
        <ele>493.77</ele>
        <time>2016-02-26T08:28:37Z</time>
      </trkpt>
      <trkpt lat="43.56068" lon="6.46541">
        <ele>493.77</ele>
        <time>2016-02-26T08:28:40Z</time>
      </trkpt>
      <trkpt lat="43.5607" lon="6.46544">
        <ele>493.77</ele>
        <time>2016-02-26T08:28:43Z</time>
      </trkpt>
      <trkpt lat="43.56079" lon="6.46551">
        <ele>494.74</ele>
        <time>2016-02-26T08:28:50Z</time>
      </trkpt>
      <trkpt lat="43.56081" lon="6.46555">
        <ele>495.22</ele>
        <time>2016-02-26T08:28:54Z</time>
      </trkpt>
      <trkpt lat="43.56084" lon="6.4656">
        <ele>496.18</ele>
        <time>2016-02-26T08:29:00Z</time>
      </trkpt>
      <trkpt lat="43.56088" lon="6.46564">
        <ele>497.14</ele>
        <time>2016-02-26T08:29:04Z</time>
      </trkpt>
      <trkpt lat="43.56091" lon="6.46571">
        <ele>498.1</ele>
        <time>2016-02-26T08:29:10Z</time>
      </trkpt>
      <trkpt lat="43.56103" lon="6.46588">
        <ele>500.02</ele>
        <time>2016-02-26T08:29:24Z</time>
      </trkpt>
      <trkpt lat="43.56108" lon="6.46591">
        <ele>500.5</ele>
        <time>2016-02-26T08:29:29Z</time>
      </trkpt>
      <trkpt lat="43.56114" lon="6.46599">
        <ele>500.5</ele>
        <time>2016-02-26T08:29:36Z</time>
      </trkpt>
      <trkpt lat="43.56131" lon="6.46617">
        <ele>501.95</ele>
        <time>2016-02-26T08:29:53Z</time>
      </trkpt>
      <trkpt lat="43.56139" lon="6.4663">
        <ele>502.43</ele>
        <time>2016-02-26T08:30:06Z</time>
      </trkpt>
      <trkpt lat="43.56144" lon="6.4663">
        <ele>502.91</ele>
        <time>2016-02-26T08:30:21Z</time>
      </trkpt>
      <trkpt lat="43.56144" lon="6.4663">
        <ele>502.91</ele>
        <time>2016-02-26T08:30:26Z</time>
      </trkpt>
      <trkpt lat="43.56145" lon="6.46635">
        <ele>503.39</ele>
        <time>2016-02-26T08:30:38Z</time>
      </trkpt>
      <trkpt lat="43.56148" lon="6.46634">
        <ele>502.91</ele>
        <time>2016-02-26T08:30:41Z</time>
      </trkpt>
      <trkpt lat="43.56147" lon="6.46629">
        <ele>502.91</ele>
        <time>2016-02-26T08:30:53Z</time>
      </trkpt>
      <trkpt lat="43.56147" lon="6.4663">
        <ele>502.91</ele>
        <time>2016-02-26T08:31:07Z</time>
      </trkpt>
      <trkpt lat="43.56148" lon="6.46635">
        <ele>503.39</ele>
        <time>2016-02-26T08:31:21Z</time>
      </trkpt>
      <trkpt lat="43.56148" lon="6.46635">
        <ele>503.39</ele>
        <time>2016-02-26T08:31:38Z</time>
      </trkpt>
      <trkpt lat="43.56148" lon="6.46634">
        <ele>503.39</ele>
        <time>2016-02-26T08:31:46Z</time>
      </trkpt>
      <trkpt lat="43.56147" lon="6.4663">
        <ele>502.91</ele>
        <time>2016-02-26T08:31:49Z</time>
      </trkpt>
      <trkpt lat="43.56146" lon="6.46627">
        <ele>502.91</ele>
        <time>2016-02-26T08:31:53Z</time>
      </trkpt>
      <trkpt lat="43.56146" lon="6.46624">
        <ele>502.91</ele>
        <time>2016-02-26T08:31:55Z</time>
      </trkpt>
      <trkpt lat="43.56149" lon="6.4662">
        <ele>502.91</ele>
        <time>2016-02-26T08:32:12Z</time>
      </trkpt>
      <trkpt lat="43.5615" lon="6.46619">
        <ele>503.39</ele>
        <time>2016-02-26T08:32:23Z</time>
      </trkpt>
      <trkpt lat="43.56154" lon="6.46619">
        <ele>503.87</ele>
        <time>2016-02-26T08:32:39Z</time>
      </trkpt>
      <trkpt lat="43.56155" lon="6.46618">
        <ele>503.87</ele>
        <time>2016-02-26T08:32:41Z</time>
      </trkpt>
      <trkpt lat="43.56151" lon="6.46617">
        <ele>503.39</ele>
        <time>2016-02-26T08:32:51Z</time>
      </trkpt>
      <trkpt lat="43.56153" lon="6.46616">
        <ele>503.87</ele>
        <time>2016-02-26T08:32:54Z</time>
      </trkpt>
      <trkpt lat="43.56155" lon="6.46616">
        <ele>503.87</ele>
        <time>2016-02-26T08:32:56Z</time>
      </trkpt>
      <trkpt lat="43.56158" lon="6.46616">
        <ele>503.87</ele>
        <time>2016-02-26T08:32:59Z</time>
      </trkpt>
      <trkpt lat="43.56174" lon="6.46607">
        <ele>504.35</ele>
        <time>2016-02-26T08:33:14Z</time>
      </trkpt>
      <trkpt lat="43.56188" lon="6.46595">
        <ele>502.43</ele>
        <time>2016-02-26T08:33:27Z</time>
      </trkpt>
      <trkpt lat="43.56202" lon="6.46583">
        <ele>502.43</ele>
        <time>2016-02-26T08:33:40Z</time>
      </trkpt>
      <trkpt lat="43.56205" lon="6.46581">
        <ele>501.95</ele>
        <time>2016-02-26T08:33:42Z</time>
      </trkpt>
      <trkpt lat="43.56216" lon="6.4657">
        <ele>501.46</ele>
        <time>2016-02-26T08:33:53Z</time>
      </trkpt>
      <trkpt lat="43.56218" lon="6.46568">
        <ele>501.46</ele>
        <time>2016-02-26T08:33:55Z</time>
      </trkpt>
      <trkpt lat="43.56221" lon="6.46565">
        <ele>501.46</ele>
        <time>2016-02-26T08:33:58Z</time>
      </trkpt>
      <trkpt lat="43.56225" lon="6.46561">
        <ele>501.46</ele>
        <time>2016-02-26T08:34:02Z</time>
      </trkpt>
      <trkpt lat="43.5623" lon="6.46558">
        <ele>500.98</ele>
        <time>2016-02-26T08:34:07Z</time>
      </trkpt>
      <trkpt lat="43.56232" lon="6.46555">
        <ele>500.98</ele>
        <time>2016-02-26T08:34:19Z</time>
      </trkpt>
      <trkpt lat="43.56235" lon="6.46553">
        <ele>500.5</ele>
        <time>2016-02-26T08:34:23Z</time>
      </trkpt>
      <trkpt lat="43.56237" lon="6.46551">
        <ele>500.5</ele>
        <time>2016-02-26T08:34:25Z</time>
      </trkpt>
      <trkpt lat="43.56245" lon="6.46542">
        <ele>500.5</ele>
        <time>2016-02-26T08:34:32Z</time>
      </trkpt>
      <trkpt lat="43.56247" lon="6.46539">
        <ele>500.5</ele>
        <time>2016-02-26T08:34:34Z</time>
      </trkpt>
      <trkpt lat="43.56263" lon="6.4653">
        <ele>500.5</ele>
        <time>2016-02-26T08:34:44Z</time>
      </trkpt>
      <trkpt lat="43.56276" lon="6.46524">
        <ele>500.5</ele>
        <time>2016-02-26T08:34:54Z</time>
      </trkpt>
      <trkpt lat="43.56295" lon="6.46516">
        <ele>501.95</ele>
        <time>2016-02-26T08:35:08Z</time>
      </trkpt>
      <trkpt lat="43.56309" lon="6.4651">
        <ele>502.91</ele>
        <time>2016-02-26T08:35:19Z</time>
      </trkpt>
      <trkpt lat="43.56327" lon="6.46509">
        <ele>504.35</ele>
        <time>2016-02-26T08:35:32Z</time>
      </trkpt>
      <trkpt lat="43.56341" lon="6.46511">
        <ele>505.79</ele>
        <time>2016-02-26T08:35:44Z</time>
      </trkpt>
      <trkpt lat="43.56348" lon="6.46512">
        <ele>506.27</ele>
        <time>2016-02-26T08:35:49Z</time>
      </trkpt>
      <trkpt lat="43.56354" lon="6.46512">
        <ele>506.75</ele>
        <time>2016-02-26T08:35:54Z</time>
      </trkpt>
      <trkpt lat="43.56375" lon="6.46493">
        <ele>507.71</ele>
        <time>2016-02-26T08:36:10Z</time>
      </trkpt>
      <trkpt lat="43.56386" lon="6.4647">
        <ele>508.67</ele>
        <time>2016-02-26T08:36:24Z</time>
      </trkpt>
      <trkpt lat="43.56389" lon="6.46462">
        <ele>509.16</ele>
        <time>2016-02-26T08:36:28Z</time>
      </trkpt>
      <trkpt lat="43.564" lon="6.46442">
        <ele>511.08</ele>
        <time>2016-02-26T08:36:41Z</time>
      </trkpt>
      <trkpt lat="43.56411" lon="6.46433">
        <ele>513</ele>
        <time>2016-02-26T08:36:51Z</time>
      </trkpt>
      <trkpt lat="43.56421" lon="6.46422">
        <ele>513.48</ele>
        <time>2016-02-26T08:37:02Z</time>
      </trkpt>
      <trkpt lat="43.56439" lon="6.46408">
        <ele>513</ele>
        <time>2016-02-26T08:37:16Z</time>
      </trkpt>
      <trkpt lat="43.56455" lon="6.46385">
        <ele>513.96</ele>
        <time>2016-02-26T08:37:31Z</time>
      </trkpt>
      <trkpt lat="43.56459" lon="6.46377">
        <ele>514.44</ele>
        <time>2016-02-26T08:37:36Z</time>
      </trkpt>
      <trkpt lat="43.56467" lon="6.46369">
        <ele>514.92</ele>
        <time>2016-02-26T08:37:43Z</time>
      </trkpt>
      <trkpt lat="43.56473" lon="6.46358">
        <ele>515.88</ele>
        <time>2016-02-26T08:37:50Z</time>
      </trkpt>
      <trkpt lat="43.56483" lon="6.46345">
        <ele>517.81</ele>
        <time>2016-02-26T08:38:00Z</time>
      </trkpt>
      <trkpt lat="43.56505" lon="6.46335">
        <ele>520.69</ele>
        <time>2016-02-26T08:38:16Z</time>
      </trkpt>
      <trkpt lat="43.56516" lon="6.46325">
        <ele>522.61</ele>
        <time>2016-02-26T08:38:26Z</time>
      </trkpt>
      <trkpt lat="43.56521" lon="6.46323">
        <ele>523.09</ele>
        <time>2016-02-26T08:38:30Z</time>
      </trkpt>
      <trkpt lat="43.56546" lon="6.46313">
        <ele>525.98</ele>
        <time>2016-02-26T08:38:48Z</time>
      </trkpt>
      <trkpt lat="43.56561" lon="6.46308">
        <ele>527.9</ele>
        <time>2016-02-26T08:39:00Z</time>
      </trkpt>
      <trkpt lat="43.56578" lon="6.46303">
        <ele>528.38</ele>
        <time>2016-02-26T08:39:13Z</time>
      </trkpt>
      <trkpt lat="43.56585" lon="6.46302">
        <ele>528.38</ele>
        <time>2016-02-26T08:39:27Z</time>
      </trkpt>
      <trkpt lat="43.56586" lon="6.463">
        <ele>527.9</ele>
        <time>2016-02-26T08:39:55Z</time>
      </trkpt>
      <trkpt lat="43.56587" lon="6.46301">
        <ele>527.9</ele>
        <time>2016-02-26T08:39:58Z</time>
      </trkpt>
      <trkpt lat="43.5659" lon="6.46301">
        <ele>527.9</ele>
        <time>2016-02-26T08:40:07Z</time>
      </trkpt>
      <trkpt lat="43.56591" lon="6.46298">
        <ele>527.42</ele>
        <time>2016-02-26T08:40:22Z</time>
      </trkpt>
      <trkpt lat="43.56591" lon="6.46298">
        <ele>527.42</ele>
        <time>2016-02-26T08:40:49Z</time>
      </trkpt>
      <trkpt lat="43.56593" lon="6.463">
        <ele>526.94</ele>
        <time>2016-02-26T08:41:01Z</time>
      </trkpt>
      <trkpt lat="43.56596" lon="6.46299">
        <ele>526.94</ele>
        <time>2016-02-26T08:41:04Z</time>
      </trkpt>
      <trkpt lat="43.56604" lon="6.46296">
        <ele>526.46</ele>
        <time>2016-02-26T08:41:20Z</time>
      </trkpt>
      <trkpt lat="43.56605" lon="6.463">
        <ele>526.94</ele>
        <time>2016-02-26T08:41:32Z</time>
      </trkpt>
      <trkpt lat="43.56603" lon="6.463">
        <ele>526.94</ele>
        <time>2016-02-26T08:41:44Z</time>
      </trkpt>
      <trkpt lat="43.56602" lon="6.46297">
        <ele>526.46</ele>
        <time>2016-02-26T08:41:50Z</time>
      </trkpt>
      <trkpt lat="43.56605" lon="6.463">
        <ele>525.98</ele>
        <time>2016-02-26T08:41:54Z</time>
      </trkpt>
      <trkpt lat="43.56617" lon="6.46305">
        <ele>525.5</ele>
        <time>2016-02-26T08:42:04Z</time>
      </trkpt>
      <trkpt lat="43.56623" lon="6.4631">
        <ele>525.5</ele>
        <time>2016-02-26T08:42:10Z</time>
      </trkpt>
      <trkpt lat="43.56637" lon="6.46309">
        <ele>523.58</ele>
        <time>2016-02-26T08:42:23Z</time>
      </trkpt>
      <trkpt lat="43.56649" lon="6.46318">
        <ele>521.65</ele>
        <time>2016-02-26T08:42:33Z</time>
      </trkpt>
      <trkpt lat="43.56661" lon="6.46337">
        <ele>519.25</ele>
        <time>2016-02-26T08:42:48Z</time>
      </trkpt>
      <trkpt lat="43.5667" lon="6.46356">
        <ele>516.85</ele>
        <time>2016-02-26T08:43:02Z</time>
      </trkpt>
      <trkpt lat="43.56676" lon="6.46375">
        <ele>514.92</ele>
        <time>2016-02-26T08:43:14Z</time>
      </trkpt>
      <trkpt lat="43.56676" lon="6.46377">
        <ele>514.44</ele>
        <time>2016-02-26T08:43:16Z</time>
      </trkpt>
      <trkpt lat="43.56688" lon="6.46383">
        <ele>513.48</ele>
        <time>2016-02-26T08:43:28Z</time>
      </trkpt>
      <trkpt lat="43.56693" lon="6.46385">
        <ele>513</ele>
        <time>2016-02-26T08:43:43Z</time>
      </trkpt>
      <trkpt lat="43.56694" lon="6.46385">
        <ele>512.52</ele>
        <time>2016-02-26T08:43:44Z</time>
      </trkpt>
      <trkpt lat="43.56697" lon="6.46389">
        <ele>512.04</ele>
        <time>2016-02-26T08:43:47Z</time>
      </trkpt>
      <trkpt lat="43.56706" lon="6.464">
        <ele>510.12</ele>
        <time>2016-02-26T08:43:57Z</time>
      </trkpt>
      <trkpt lat="43.56716" lon="6.46412">
        <ele>508.19</ele>
        <time>2016-02-26T08:44:09Z</time>
      </trkpt>
      <trkpt lat="43.56727" lon="6.46424">
        <ele>505.31</ele>
        <time>2016-02-26T08:44:21Z</time>
      </trkpt>
      <trkpt lat="43.5674" lon="6.46436">
        <ele>504.35</ele>
        <time>2016-02-26T08:44:35Z</time>
      </trkpt>
      <trkpt lat="43.5674" lon="6.46437">
        <ele>504.35</ele>
        <time>2016-02-26T08:44:36Z</time>
      </trkpt>
      <trkpt lat="43.56742" lon="6.4644">
        <ele>504.35</ele>
        <time>2016-02-26T08:44:38Z</time>
      </trkpt>
      <trkpt lat="43.56748" lon="6.46438">
        <ele>504.35</ele>
        <time>2016-02-26T08:44:40Z</time>
      </trkpt>
      <trkpt lat="43.56758" lon="6.46443">
        <ele>502.91</ele>
        <time>2016-02-26T08:44:54Z</time>
      </trkpt>
      <trkpt lat="43.5676" lon="6.46445">
        <ele>501.95</ele>
        <time>2016-02-26T08:45:01Z</time>
      </trkpt>
      <trkpt lat="43.56766" lon="6.46448">
        <ele>501.95</ele>
        <time>2016-02-26T08:45:05Z</time>
      </trkpt>
      <trkpt lat="43.56773" lon="6.46455">
        <ele>499.06</ele>
        <time>2016-02-26T08:45:12Z</time>
      </trkpt>
      <trkpt lat="43.5678" lon="6.4646">
        <ele>500.02</ele>
        <time>2016-02-26T08:45:22Z</time>
      </trkpt>
      <trkpt lat="43.56791" lon="6.46473">
        <ele>498.58</ele>
        <time>2016-02-26T08:45:33Z</time>
      </trkpt>
      <trkpt lat="43.56799" lon="6.46484">
        <ele>496.66</ele>
        <time>2016-02-26T08:45:42Z</time>
      </trkpt>
      <trkpt lat="43.56806" lon="6.4649">
        <ele>496.18</ele>
        <time>2016-02-26T08:45:47Z</time>
      </trkpt>
      <trkpt lat="43.56823" lon="6.46509">
        <ele>493.29</ele>
        <time>2016-02-26T08:46:03Z</time>
      </trkpt>
      <trkpt lat="43.56841" lon="6.46517">
        <ele>492.33</ele>
        <time>2016-02-26T08:46:16Z</time>
      </trkpt>
      <trkpt lat="43.56862" lon="6.46526">
        <ele>491.37</ele>
        <time>2016-02-26T08:46:31Z</time>
      </trkpt>
      <trkpt lat="43.56875" lon="6.46534">
        <ele>491.37</ele>
        <time>2016-02-26T08:46:45Z</time>
      </trkpt>
      <trkpt lat="43.56875" lon="6.46534">
        <ele>491.37</ele>
        <time>2016-02-26T08:46:47Z</time>
      </trkpt>
      <trkpt lat="43.56879" lon="6.46536">
        <ele>491.37</ele>
        <time>2016-02-26T08:46:52Z</time>
      </trkpt>
      <trkpt lat="43.56883" lon="6.46537">
        <ele>491.37</ele>
        <time>2016-02-26T08:46:55Z</time>
      </trkpt>
      <trkpt lat="43.56888" lon="6.46539">
        <ele>490.89</ele>
        <time>2016-02-26T08:46:58Z</time>
      </trkpt>
      <trkpt lat="43.56906" lon="6.46533">
        <ele>491.37</ele>
        <time>2016-02-26T08:47:09Z</time>
      </trkpt>
      <trkpt lat="43.56924" lon="6.46521">
        <ele>491.85</ele>
        <time>2016-02-26T08:47:25Z</time>
      </trkpt>
      <trkpt lat="43.56927" lon="6.46519">
        <ele>492.33</ele>
        <time>2016-02-26T08:47:35Z</time>
      </trkpt>
      <trkpt lat="43.56929" lon="6.46518">
        <ele>492.33</ele>
        <time>2016-02-26T08:47:37Z</time>
      </trkpt>
      <trkpt lat="43.56941" lon="6.46514">
        <ele>493.77</ele>
        <time>2016-02-26T08:47:49Z</time>
      </trkpt>
      <trkpt lat="43.56956" lon="6.46504">
        <ele>496.18</ele>
        <time>2016-02-26T08:48:03Z</time>
      </trkpt>
      <trkpt lat="43.5698" lon="6.46503">
        <ele>497.62</ele>
        <time>2016-02-26T08:48:20Z</time>
      </trkpt>
      <trkpt lat="43.56997" lon="6.4651">
        <ele>498.1</ele>
        <time>2016-02-26T08:48:33Z</time>
      </trkpt>
      <trkpt lat="43.57014" lon="6.46518">
        <ele>497.62</ele>
        <time>2016-02-26T08:48:47Z</time>
      </trkpt>
      <trkpt lat="43.57033" lon="6.46529">
        <ele>495.22</ele>
        <time>2016-02-26T08:49:02Z</time>
      </trkpt>
      <trkpt lat="43.57051" lon="6.46536">
        <ele>493.29</ele>
        <time>2016-02-26T08:49:15Z</time>
      </trkpt>
      <trkpt lat="43.57065" lon="6.46539">
        <ele>491.37</ele>
        <time>2016-02-26T08:49:27Z</time>
      </trkpt>
      <trkpt lat="43.5707" lon="6.46542">
        <ele>491.37</ele>
        <time>2016-02-26T08:49:32Z</time>
      </trkpt>
      <trkpt lat="43.57083" lon="6.46539">
        <ele>489.93</ele>
        <time>2016-02-26T08:49:46Z</time>
      </trkpt>
      <trkpt lat="43.57083" lon="6.46539">
        <ele>489.93</ele>
        <time>2016-02-26T08:49:47Z</time>
      </trkpt>
      <trkpt lat="43.57099" lon="6.46539">
        <ele>488.97</ele>
        <time>2016-02-26T08:49:58Z</time>
      </trkpt>
      <trkpt lat="43.57102" lon="6.46538">
        <ele>488.97</ele>
        <time>2016-02-26T08:49:59Z</time>
      </trkpt>
      <trkpt lat="43.57106" lon="6.46538">
        <ele>488.97</ele>
        <time>2016-02-26T08:50:03Z</time>
      </trkpt>
      <trkpt lat="43.57126" lon="6.4655">
        <ele>486.56</ele>
        <time>2016-02-26T08:50:19Z</time>
      </trkpt>
      <trkpt lat="43.57141" lon="6.46567">
        <ele>484.64</ele>
        <time>2016-02-26T08:50:34Z</time>
      </trkpt>
      <trkpt lat="43.57154" lon="6.46585">
        <ele>483.68</ele>
        <time>2016-02-26T08:50:47Z</time>
      </trkpt>
      <trkpt lat="43.57166" lon="6.46609">
        <ele>482.72</ele>
        <time>2016-02-26T08:51:02Z</time>
      </trkpt>
      <trkpt lat="43.57169" lon="6.46621">
        <ele>481.76</ele>
        <time>2016-02-26T08:51:08Z</time>
      </trkpt>
      <trkpt lat="43.57175" lon="6.46638">
        <ele>481.28</ele>
        <time>2016-02-26T08:51:18Z</time>
      </trkpt>
      <trkpt lat="43.57178" lon="6.4665">
        <ele>480.32</ele>
        <time>2016-02-26T08:51:24Z</time>
      </trkpt>
      <trkpt lat="43.57177" lon="6.46663">
        <ele>480.32</ele>
        <time>2016-02-26T08:51:31Z</time>
      </trkpt>
      <trkpt lat="43.57176" lon="6.46668">
        <ele>479.84</ele>
        <time>2016-02-26T08:51:34Z</time>
      </trkpt>
      <trkpt lat="43.57182" lon="6.46695">
        <ele>478.87</ele>
        <time>2016-02-26T08:51:48Z</time>
      </trkpt>
      <trkpt lat="43.57194" lon="6.46717">
        <ele>478.39</ele>
        <time>2016-02-26T08:52:02Z</time>
      </trkpt>
      <trkpt lat="43.57204" lon="6.4673">
        <ele>478.87</ele>
        <time>2016-02-26T08:52:11Z</time>
      </trkpt>
      <trkpt lat="43.57213" lon="6.46739">
        <ele>477.91</ele>
        <time>2016-02-26T08:52:19Z</time>
      </trkpt>
      <trkpt lat="43.57227" lon="6.46759">
        <ele>476.95</ele>
        <time>2016-02-26T08:52:34Z</time>
      </trkpt>
      <trkpt lat="43.57234" lon="6.46781">
        <ele>475.99</ele>
        <time>2016-02-26T08:52:47Z</time>
      </trkpt>
      <trkpt lat="43.57238" lon="6.468">
        <ele>475.51</ele>
        <time>2016-02-26T08:52:59Z</time>
      </trkpt>
      <trkpt lat="43.57238" lon="6.46819">
        <ele>475.03</ele>
        <time>2016-02-26T08:53:09Z</time>
      </trkpt>
      <trkpt lat="43.57238" lon="6.46849">
        <ele>474.07</ele>
        <time>2016-02-26T08:53:25Z</time>
      </trkpt>
      <trkpt lat="43.57237" lon="6.46876">
        <ele>474.07</ele>
        <time>2016-02-26T08:53:39Z</time>
      </trkpt>
      <trkpt lat="43.57237" lon="6.46898">
        <ele>473.11</ele>
        <time>2016-02-26T08:53:51Z</time>
      </trkpt>
      <trkpt lat="43.57237" lon="6.46914">
        <ele>473.11</ele>
        <time>2016-02-26T08:53:59Z</time>
      </trkpt>
      <trkpt lat="43.57238" lon="6.46941">
        <ele>472.63</ele>
        <time>2016-02-26T08:54:13Z</time>
      </trkpt>
      <trkpt lat="43.57239" lon="6.46968">
        <ele>471.66</ele>
        <time>2016-02-26T08:54:27Z</time>
      </trkpt>
      <trkpt lat="43.57239" lon="6.46982">
        <ele>471.66</ele>
        <time>2016-02-26T08:54:33Z</time>
      </trkpt>
      <trkpt lat="43.57241" lon="6.46999">
        <ele>471.18</ele>
        <time>2016-02-26T08:54:42Z</time>
      </trkpt>
      <trkpt lat="43.57244" lon="6.47027">
        <ele>470.7</ele>
        <time>2016-02-26T08:54:57Z</time>
      </trkpt>
      <trkpt lat="43.57248" lon="6.47052">
        <ele>469.74</ele>
        <time>2016-02-26T08:55:09Z</time>
      </trkpt>
      <trkpt lat="43.57255" lon="6.47078">
        <ele>469.26</ele>
        <time>2016-02-26T08:55:22Z</time>
      </trkpt>
      <trkpt lat="43.57265" lon="6.47103">
        <ele>468.3</ele>
        <time>2016-02-26T08:55:36Z</time>
      </trkpt>
      <trkpt lat="43.5727" lon="6.47115">
        <ele>467.82</ele>
        <time>2016-02-26T08:55:42Z</time>
      </trkpt>
      <trkpt lat="43.5727" lon="6.47124">
        <ele>467.82</ele>
        <time>2016-02-26T08:55:47Z</time>
      </trkpt>
      <trkpt lat="43.57278" lon="6.47145">
        <ele>466.38</ele>
        <time>2016-02-26T08:56:01Z</time>
      </trkpt>
      <trkpt lat="43.57286" lon="6.47173">
        <ele>464.93</ele>
        <time>2016-02-26T08:56:15Z</time>
      </trkpt>
      <trkpt lat="43.57293" lon="6.47201">
        <ele>463.97</ele>
        <time>2016-02-26T08:56:30Z</time>
      </trkpt>
      <trkpt lat="43.57296" lon="6.47224">
        <ele>462.53</ele>
        <time>2016-02-26T08:56:42Z</time>
      </trkpt>
      <trkpt lat="43.57294" lon="6.47247">
        <ele>461.09</ele>
        <time>2016-02-26T08:56:54Z</time>
      </trkpt>
      <trkpt lat="43.57293" lon="6.47261">
        <ele>460.61</ele>
        <time>2016-02-26T08:57:01Z</time>
      </trkpt>
      <trkpt lat="43.57289" lon="6.47282">
        <ele>459.65</ele>
        <time>2016-02-26T08:57:14Z</time>
      </trkpt>
      <trkpt lat="43.57286" lon="6.47308">
        <ele>458.21</ele>
        <time>2016-02-26T08:57:26Z</time>
      </trkpt>
      <trkpt lat="43.57282" lon="6.47332">
        <ele>457.24</ele>
        <time>2016-02-26T08:57:39Z</time>
      </trkpt>
      <trkpt lat="43.57279" lon="6.47351">
        <ele>455.8</ele>
        <time>2016-02-26T08:57:51Z</time>
      </trkpt>
      <trkpt lat="43.57278" lon="6.47373">
        <ele>453.88</ele>
        <time>2016-02-26T08:58:02Z</time>
      </trkpt>
      <trkpt lat="43.57281" lon="6.47392">
        <ele>452.92</ele>
        <time>2016-02-26T08:58:12Z</time>
      </trkpt>
      <trkpt lat="43.57282" lon="6.47405">
        <ele>451.48</ele>
        <time>2016-02-26T08:58:18Z</time>
      </trkpt>
      <trkpt lat="43.57282" lon="6.47415">
        <ele>450.52</ele>
        <time>2016-02-26T08:58:23Z</time>
      </trkpt>
      <trkpt lat="43.57282" lon="6.47437">
        <ele>450.03</ele>
        <time>2016-02-26T08:58:35Z</time>
      </trkpt>
      <trkpt lat="43.57281" lon="6.47439">
        <ele>451</ele>
        <time>2016-02-26T08:58:48Z</time>
      </trkpt>
      <trkpt lat="43.57279" lon="6.47436">
        <ele>452.44</ele>
        <time>2016-02-26T08:59:09Z</time>
      </trkpt>
      <trkpt lat="43.57279" lon="6.47437">
        <ele>449.55</ele>
        <time>2016-02-26T08:59:14Z</time>
      </trkpt>
      <trkpt lat="43.57281" lon="6.47438">
        <ele>451.48</ele>
        <time>2016-02-26T08:59:33Z</time>
      </trkpt>
      <trkpt lat="43.57281" lon="6.47439">
        <ele>451</ele>
        <time>2016-02-26T08:59:45Z</time>
      </trkpt>
      <trkpt lat="43.57282" lon="6.47446">
        <ele>451.48</ele>
        <time>2016-02-26T08:59:55Z</time>
      </trkpt>
      <trkpt lat="43.57281" lon="6.47445">
        <ele>451.48</ele>
        <time>2016-02-26T09:00:10Z</time>
      </trkpt>
      <trkpt lat="43.57277" lon="6.47444">
        <ele>451</ele>
        <time>2016-02-26T09:00:20Z</time>
      </trkpt>
      <trkpt lat="43.57267" lon="6.47447">
        <ele>451.48</ele>
        <time>2016-02-26T09:00:29Z</time>
      </trkpt>
      <trkpt lat="43.57254" lon="6.47463">
        <ele>451.48</ele>
        <time>2016-02-26T09:00:42Z</time>
      </trkpt>
      <trkpt lat="43.57253" lon="6.47464">
        <ele>451.48</ele>
        <time>2016-02-26T09:00:43Z</time>
      </trkpt>
      <trkpt lat="43.57244" lon="6.47474">
        <ele>451.48</ele>
        <time>2016-02-26T09:00:52Z</time>
      </trkpt>
      <trkpt lat="43.5724" lon="6.47484">
        <ele>451</ele>
        <time>2016-02-26T09:00:58Z</time>
      </trkpt>
      <trkpt lat="43.57241" lon="6.47496">
        <ele>452.44</ele>
        <time>2016-02-26T09:01:00Z</time>
      </trkpt>
      <trkpt lat="43.57233" lon="6.47531">
        <ele>452.44</ele>
        <time>2016-02-26T09:01:15Z</time>
      </trkpt>
      <trkpt lat="43.57227" lon="6.4755">
        <ele>452.44</ele>
        <time>2016-02-26T09:01:27Z</time>
      </trkpt>
      <trkpt lat="43.57219" lon="6.47574">
        <ele>451.96</ele>
        <time>2016-02-26T09:01:41Z</time>
      </trkpt>
      <trkpt lat="43.57216" lon="6.47589">
        <ele>451.96</ele>
        <time>2016-02-26T09:01:48Z</time>
      </trkpt>
      <trkpt lat="43.57212" lon="6.47623">
        <ele>451.96</ele>
        <time>2016-02-26T09:02:06Z</time>
      </trkpt>
      <trkpt lat="43.57212" lon="6.47628">
        <ele>451.48</ele>
        <time>2016-02-26T09:02:08Z</time>
      </trkpt>
      <trkpt lat="43.5721" lon="6.47661">
        <ele>451.48</ele>
        <time>2016-02-26T09:02:24Z</time>
      </trkpt>
      <trkpt lat="43.5721" lon="6.47668">
        <ele>451</ele>
        <time>2016-02-26T09:02:27Z</time>
      </trkpt>
      <trkpt lat="43.5721" lon="6.47679">
        <ele>451</ele>
        <time>2016-02-26T09:02:32Z</time>
      </trkpt>
      <trkpt lat="43.57206" lon="6.47705">
        <ele>450.52</ele>
        <time>2016-02-26T09:02:46Z</time>
      </trkpt>
      <trkpt lat="43.57205" lon="6.4773">
        <ele>450.52</ele>
        <time>2016-02-26T09:02:57Z</time>
      </trkpt>
      <trkpt lat="43.57204" lon="6.47742">
        <ele>450.52</ele>
        <time>2016-02-26T09:03:02Z</time>
      </trkpt>
      <trkpt lat="43.57204" lon="6.47745">
        <ele>450.52</ele>
        <time>2016-02-26T09:03:03Z</time>
      </trkpt>
      <trkpt lat="43.57203" lon="6.47757">
        <ele>451</ele>
        <time>2016-02-26T09:03:09Z</time>
      </trkpt>
      <trkpt lat="43.57199" lon="6.47776">
        <ele>451.48</ele>
        <time>2016-02-26T09:03:23Z</time>
      </trkpt>
      <trkpt lat="43.57196" lon="6.47805">
        <ele>453.4</ele>
        <time>2016-02-26T09:03:36Z</time>
      </trkpt>
      <trkpt lat="43.57192" lon="6.47819">
        <ele>453.88</ele>
        <time>2016-02-26T09:03:43Z</time>
      </trkpt>
      <trkpt lat="43.57192" lon="6.47847">
        <ele>453.88</ele>
        <time>2016-02-26T09:03:56Z</time>
      </trkpt>
      <trkpt lat="43.57191" lon="6.47857">
        <ele>453.4</ele>
        <time>2016-02-26T09:04:01Z</time>
      </trkpt>
      <trkpt lat="43.5719" lon="6.47866">
        <ele>452.92</ele>
        <time>2016-02-26T09:04:06Z</time>
      </trkpt>
      <trkpt lat="43.57184" lon="6.47884">
        <ele>451</ele>
        <time>2016-02-26T09:04:20Z</time>
      </trkpt>
      <trkpt lat="43.57177" lon="6.47894">
        <ele>449.55</ele>
        <time>2016-02-26T09:04:27Z</time>
      </trkpt>
      <trkpt lat="43.57162" lon="6.47907">
        <ele>448.11</ele>
        <time>2016-02-26T09:04:40Z</time>
      </trkpt>
      <trkpt lat="43.57158" lon="6.4792">
        <ele>447.15</ele>
        <time>2016-02-26T09:04:47Z</time>
      </trkpt>
      <trkpt lat="43.57158" lon="6.47925">
        <ele>447.15</ele>
        <time>2016-02-26T09:04:49Z</time>
      </trkpt>
      <trkpt lat="43.57158" lon="6.47931">
        <ele>446.67</ele>
        <time>2016-02-26T09:05:01Z</time>
      </trkpt>
      <trkpt lat="43.57148" lon="6.4795">
        <ele>444.27</ele>
        <time>2016-02-26T09:05:15Z</time>
      </trkpt>
      <trkpt lat="43.57141" lon="6.47956">
        <ele>443.31</ele>
        <time>2016-02-26T09:05:21Z</time>
      </trkpt>
      <trkpt lat="43.57133" lon="6.47964">
        <ele>442.34</ele>
        <time>2016-02-26T09:05:27Z</time>
      </trkpt>
      <trkpt lat="43.57122" lon="6.47983">
        <ele>440.9</ele>
        <time>2016-02-26T09:05:39Z</time>
      </trkpt>
      <trkpt lat="43.57119" lon="6.47994">
        <ele>439.94</ele>
        <time>2016-02-26T09:05:45Z</time>
      </trkpt>
      <trkpt lat="43.57115" lon="6.48013">
        <ele>438.98</ele>
        <time>2016-02-26T09:05:55Z</time>
      </trkpt>
      <trkpt lat="43.57113" lon="6.48021">
        <ele>438.02</ele>
        <time>2016-02-26T09:05:59Z</time>
      </trkpt>
      <trkpt lat="43.57105" lon="6.48041">
        <ele>437.06</ele>
        <time>2016-02-26T09:06:11Z</time>
      </trkpt>
      <trkpt lat="43.57094" lon="6.48064">
        <ele>435.13</ele>
        <time>2016-02-26T09:06:25Z</time>
      </trkpt>
      <trkpt lat="43.57093" lon="6.48076">
        <ele>434.65</ele>
        <time>2016-02-26T09:06:36Z</time>
      </trkpt>
      <trkpt lat="43.57087" lon="6.48086">
        <ele>433.69</ele>
        <time>2016-02-26T09:06:44Z</time>
      </trkpt>
      <trkpt lat="43.57083" lon="6.48097">
        <ele>432.73</ele>
        <time>2016-02-26T09:06:50Z</time>
      </trkpt>
      <trkpt lat="43.57076" lon="6.48123">
        <ele>430.33</ele>
        <time>2016-02-26T09:07:05Z</time>
      </trkpt>
      <trkpt lat="43.57074" lon="6.48134">
        <ele>429.37</ele>
        <time>2016-02-26T09:07:11Z</time>
      </trkpt>
      <trkpt lat="43.57072" lon="6.4814">
        <ele>428.4</ele>
        <time>2016-02-26T09:07:14Z</time>
      </trkpt>
      <trkpt lat="43.5707" lon="6.48144">
        <ele>428.4</ele>
        <time>2016-02-26T09:07:17Z</time>
      </trkpt>
      <trkpt lat="43.57068" lon="6.48147">
        <ele>427.92</ele>
        <time>2016-02-26T09:07:19Z</time>
      </trkpt>
      <trkpt lat="43.57063" lon="6.48152">
        <ele>427.44</ele>
        <time>2016-02-26T09:07:24Z</time>
      </trkpt>
      <trkpt lat="43.57061" lon="6.48156">
        <ele>426.48</ele>
        <time>2016-02-26T09:07:28Z</time>
      </trkpt>
      <trkpt lat="43.57058" lon="6.48164">
        <ele>426</ele>
        <time>2016-02-26T09:07:32Z</time>
      </trkpt>
      <trkpt lat="43.57054" lon="6.48182">
        <ele>424.08</ele>
        <time>2016-02-26T09:07:41Z</time>
      </trkpt>
      <trkpt lat="43.57052" lon="6.48191">
        <ele>423.6</ele>
        <time>2016-02-26T09:07:46Z</time>
      </trkpt>
      <trkpt lat="43.57047" lon="6.48217">
        <ele>421.19</ele>
        <time>2016-02-26T09:08:02Z</time>
      </trkpt>
      <trkpt lat="43.57044" lon="6.48233">
        <ele>419.27</ele>
        <time>2016-02-26T09:08:11Z</time>
      </trkpt>
      <trkpt lat="43.57045" lon="6.48236">
        <ele>419.27</ele>
        <time>2016-02-26T09:08:13Z</time>
      </trkpt>
      <trkpt lat="43.57042" lon="6.48255">
        <ele>417.35</ele>
        <time>2016-02-26T09:08:24Z</time>
      </trkpt>
      <trkpt lat="43.57044" lon="6.48271">
        <ele>415.91</ele>
        <time>2016-02-26T09:08:33Z</time>
      </trkpt>
      <trkpt lat="43.57047" lon="6.48278">
        <ele>414.95</ele>
        <time>2016-02-26T09:08:37Z</time>
      </trkpt>
      <trkpt lat="43.57048" lon="6.48282">
        <ele>413.98</ele>
        <time>2016-02-26T09:08:40Z</time>
      </trkpt>
      <trkpt lat="43.57054" lon="6.48292">
        <ele>413.02</ele>
        <time>2016-02-26T09:08:46Z</time>
      </trkpt>
      <trkpt lat="43.57057" lon="6.48296">
        <ele>412.54</ele>
        <time>2016-02-26T09:08:50Z</time>
      </trkpt>
      <trkpt lat="43.57062" lon="6.48307">
        <ele>411.1</ele>
        <time>2016-02-26T09:09:01Z</time>
      </trkpt>
      <trkpt lat="43.57064" lon="6.48309">
        <ele>411.1</ele>
        <time>2016-02-26T09:09:22Z</time>
      </trkpt>
      <trkpt lat="43.57062" lon="6.48312">
        <ele>411.1</ele>
        <time>2016-02-26T09:09:40Z</time>
      </trkpt>
      <trkpt lat="43.57064" lon="6.48318">
        <ele>410.14</ele>
        <time>2016-02-26T09:09:46Z</time>
      </trkpt>
      <trkpt lat="43.57078" lon="6.48337">
        <ele>408.22</ele>
        <time>2016-02-26T09:10:00Z</time>
      </trkpt>
      <trkpt lat="43.5708" lon="6.48339">
        <ele>408.22</ele>
        <time>2016-02-26T09:10:02Z</time>
      </trkpt>
      <trkpt lat="43.57083" lon="6.48341">
        <ele>407.74</ele>
        <time>2016-02-26T09:10:05Z</time>
      </trkpt>
      <trkpt lat="43.57094" lon="6.48359">
        <ele>406.77</ele>
        <time>2016-02-26T09:10:18Z</time>
      </trkpt>
      <trkpt lat="43.57096" lon="6.48364">
        <ele>406.29</ele>
        <time>2016-02-26T09:10:21Z</time>
      </trkpt>
      <trkpt lat="43.57095" lon="6.48376">
        <ele>405.33</ele>
        <time>2016-02-26T09:10:34Z</time>
      </trkpt>
      <trkpt lat="43.57096" lon="6.48375">
        <ele>405.33</ele>
        <time>2016-02-26T09:10:54Z</time>
      </trkpt>
      <trkpt lat="43.57097" lon="6.48374">
        <ele>405.33</ele>
        <time>2016-02-26T09:11:19Z</time>
      </trkpt>
      <trkpt lat="43.57095" lon="6.48377">
        <ele>405.33</ele>
        <time>2016-02-26T09:11:25Z</time>
      </trkpt>
      <trkpt lat="43.57093" lon="6.4838">
        <ele>404.85</ele>
        <time>2016-02-26T09:11:28Z</time>
      </trkpt>
      <trkpt lat="43.57092" lon="6.48384">
        <ele>404.37</ele>
        <time>2016-02-26T09:11:31Z</time>
      </trkpt>
      <trkpt lat="43.5709" lon="6.48388">
        <ele>403.41</ele>
        <time>2016-02-26T09:11:35Z</time>
      </trkpt>
      <trkpt lat="43.57086" lon="6.48398">
        <ele>402.93</ele>
        <time>2016-02-26T09:11:43Z</time>
      </trkpt>
      <trkpt lat="43.57085" lon="6.48406">
        <ele>401.97</ele>
        <time>2016-02-26T09:11:49Z</time>
      </trkpt>
      <trkpt lat="43.57082" lon="6.48427">
        <ele>401.01</ele>
        <time>2016-02-26T09:12:02Z</time>
      </trkpt>
      <trkpt lat="43.57082" lon="6.48441">
        <ele>400.05</ele>
        <time>2016-02-26T09:12:09Z</time>
      </trkpt>
      <trkpt lat="43.57077" lon="6.48459">
        <ele>398.6</ele>
        <time>2016-02-26T09:12:22Z</time>
      </trkpt>
      <trkpt lat="43.57073" lon="6.48467">
        <ele>398.12</ele>
        <time>2016-02-26T09:12:27Z</time>
      </trkpt>
      <trkpt lat="43.57063" lon="6.48483">
        <ele>396.2</ele>
        <time>2016-02-26T09:12:39Z</time>
      </trkpt>
      <trkpt lat="43.57054" lon="6.48494">
        <ele>394.76</ele>
        <time>2016-02-26T09:12:48Z</time>
      </trkpt>
      <trkpt lat="43.57051" lon="6.48495">
        <ele>394.76</ele>
        <time>2016-02-26T09:12:51Z</time>
      </trkpt>
      <trkpt lat="43.57038" lon="6.48517">
        <ele>392.36</ele>
        <time>2016-02-26T09:13:04Z</time>
      </trkpt>
      <trkpt lat="43.57033" lon="6.4854">
        <ele>390.91</ele>
        <time>2016-02-26T09:13:17Z</time>
      </trkpt>
      <trkpt lat="43.57032" lon="6.48568">
        <ele>388.99</ele>
        <time>2016-02-26T09:13:30Z</time>
      </trkpt>
      <trkpt lat="43.57032" lon="6.48571">
        <ele>388.99</ele>
        <time>2016-02-26T09:13:31Z</time>
      </trkpt>
      <trkpt lat="43.57031" lon="6.48582">
        <ele>388.51</ele>
        <time>2016-02-26T09:13:36Z</time>
      </trkpt>
      <trkpt lat="43.57033" lon="6.48587">
        <ele>388.51</ele>
        <time>2016-02-26T09:13:39Z</time>
      </trkpt>
      <trkpt lat="43.57034" lon="6.4859">
        <ele>388.03</ele>
        <time>2016-02-26T09:13:41Z</time>
      </trkpt>
      <trkpt lat="43.57034" lon="6.48611">
        <ele>388.03</ele>
        <time>2016-02-26T09:13:52Z</time>
      </trkpt>
      <trkpt lat="43.57029" lon="6.4864">
        <ele>387.07</ele>
        <time>2016-02-26T09:14:05Z</time>
      </trkpt>
      <trkpt lat="43.57021" lon="6.48669">
        <ele>386.59</ele>
        <time>2016-02-26T09:14:19Z</time>
      </trkpt>
      <trkpt lat="43.57021" lon="6.48695">
        <ele>386.11</ele>
        <time>2016-02-26T09:14:31Z</time>
      </trkpt>
      <trkpt lat="43.57028" lon="6.48723">
        <ele>385.63</ele>
        <time>2016-02-26T09:14:45Z</time>
      </trkpt>
      <trkpt lat="43.57034" lon="6.4875">
        <ele>385.15</ele>
        <time>2016-02-26T09:14:58Z</time>
      </trkpt>
      <trkpt lat="43.57038" lon="6.48777">
        <ele>384.66</ele>
        <time>2016-02-26T09:15:12Z</time>
      </trkpt>
      <trkpt lat="43.57044" lon="6.48809">
        <ele>383.7</ele>
        <time>2016-02-26T09:15:26Z</time>
      </trkpt>
      <trkpt lat="43.5705" lon="6.48839">
        <ele>383.7</ele>
        <time>2016-02-26T09:15:40Z</time>
      </trkpt>
      <trkpt lat="43.57051" lon="6.48841">
        <ele>383.7</ele>
        <time>2016-02-26T09:15:41Z</time>
      </trkpt>
      <trkpt lat="43.57063" lon="6.48869">
        <ele>382.74</ele>
        <time>2016-02-26T09:15:57Z</time>
      </trkpt>
      <trkpt lat="43.57067" lon="6.48874">
        <ele>382.26</ele>
        <time>2016-02-26T09:16:00Z</time>
      </trkpt>
      <trkpt lat="43.57078" lon="6.48886">
        <ele>382.26</ele>
        <time>2016-02-26T09:16:11Z</time>
      </trkpt>
      <trkpt lat="43.57077" lon="6.48886">
        <ele>382.26</ele>
        <time>2016-02-26T09:16:34Z</time>
      </trkpt>
      <trkpt lat="43.5707" lon="6.48865">
        <ele>382.74</ele>
        <time>2016-02-26T09:16:47Z</time>
      </trkpt>
      <trkpt lat="43.57069" lon="6.48863">
        <ele>382.74</ele>
        <time>2016-02-26T09:16:48Z</time>
      </trkpt>
      <trkpt lat="43.57058" lon="6.48843">
        <ele>383.22</ele>
        <time>2016-02-26T09:17:03Z</time>
      </trkpt>
      <trkpt lat="43.57057" lon="6.48836">
        <ele>383.7</ele>
        <time>2016-02-26T09:17:07Z</time>
      </trkpt>
      <trkpt lat="43.57052" lon="6.48808">
        <ele>384.18</ele>
        <time>2016-02-26T09:17:23Z</time>
      </trkpt>
      <trkpt lat="43.57048" lon="6.48786">
        <ele>384.66</ele>
        <time>2016-02-26T09:17:36Z</time>
      </trkpt>
      <trkpt lat="43.57047" lon="6.48775">
        <ele>384.66</ele>
        <time>2016-02-26T09:17:41Z</time>
      </trkpt>
      <trkpt lat="43.57041" lon="6.48756">
        <ele>385.63</ele>
        <time>2016-02-26T09:17:55Z</time>
      </trkpt>
      <trkpt lat="43.57041" lon="6.48755">
        <ele>386.59</ele>
        <time>2016-02-26T09:18:14Z</time>
      </trkpt>
      <trkpt lat="43.57042" lon="6.48757">
        <ele>385.63</ele>
        <time>2016-02-26T09:18:19Z</time>
      </trkpt>
      <trkpt lat="43.57043" lon="6.4876">
        <ele>385.63</ele>
        <time>2016-02-26T09:18:21Z</time>
      </trkpt>
      <trkpt lat="43.57047" lon="6.48777">
        <ele>383.22</ele>
        <time>2016-02-26T09:18:32Z</time>
      </trkpt>
      <trkpt lat="43.57051" lon="6.48791">
        <ele>385.15</ele>
        <time>2016-02-26T09:18:46Z</time>
      </trkpt>
      <trkpt lat="43.57051" lon="6.48791">
        <ele>385.15</ele>
        <time>2016-02-26T09:18:49Z</time>
      </trkpt>
      <trkpt lat="43.57049" lon="6.4878">
        <ele>385.15</ele>
        <time>2016-02-26T09:18:55Z</time>
      </trkpt>
      <trkpt lat="43.57043" lon="6.48754">
        <ele>385.63</ele>
        <time>2016-02-26T09:19:08Z</time>
      </trkpt>
      <trkpt lat="43.57038" lon="6.48733">
        <ele>386.59</ele>
        <time>2016-02-26T09:19:19Z</time>
      </trkpt>
      <trkpt lat="43.57036" lon="6.48729">
        <ele>386.59</ele>
        <time>2016-02-26T09:19:21Z</time>
      </trkpt>
      <trkpt lat="43.57034" lon="6.48722">
        <ele>387.07</ele>
        <time>2016-02-26T09:19:25Z</time>
      </trkpt>
      <trkpt lat="43.57022" lon="6.487">
        <ele>387.07</ele>
        <time>2016-02-26T09:19:38Z</time>
      </trkpt>
      <trkpt lat="43.57021" lon="6.48692">
        <ele>387.55</ele>
        <time>2016-02-26T09:19:42Z</time>
      </trkpt>
      <trkpt lat="43.57022" lon="6.48664">
        <ele>388.03</ele>
        <time>2016-02-26T09:19:55Z</time>
      </trkpt>
      <trkpt lat="43.57026" lon="6.48649">
        <ele>388.03</ele>
        <time>2016-02-26T09:20:03Z</time>
      </trkpt>
      <trkpt lat="43.57029" lon="6.48635">
        <ele>388.51</ele>
        <time>2016-02-26T09:20:09Z</time>
      </trkpt>
      <trkpt lat="43.57034" lon="6.48607">
        <ele>388.99</ele>
        <time>2016-02-26T09:20:22Z</time>
      </trkpt>
      <trkpt lat="43.57036" lon="6.4859">
        <ele>389.47</ele>
        <time>2016-02-26T09:20:31Z</time>
      </trkpt>
      <trkpt lat="43.57034" lon="6.48583">
        <ele>389.95</ele>
        <time>2016-02-26T09:20:35Z</time>
      </trkpt>
      <trkpt lat="43.57031" lon="6.48566">
        <ele>390.43</ele>
        <time>2016-02-26T09:20:44Z</time>
      </trkpt>
      <trkpt lat="43.57031" lon="6.48545">
        <ele>391.87</ele>
        <time>2016-02-26T09:20:54Z</time>
      </trkpt>
      <trkpt lat="43.57032" lon="6.48541">
        <ele>391.87</ele>
        <time>2016-02-26T09:20:56Z</time>
      </trkpt>
      <trkpt lat="43.57035" lon="6.48531">
        <ele>392.36</ele>
        <time>2016-02-26T09:21:01Z</time>
      </trkpt>
      <trkpt lat="43.5704" lon="6.48521">
        <ele>394.28</ele>
        <time>2016-02-26T09:21:12Z</time>
      </trkpt>
      <trkpt lat="43.57046" lon="6.48511">
        <ele>395.24</ele>
        <time>2016-02-26T09:21:17Z</time>
      </trkpt>
      <trkpt lat="43.57064" lon="6.48483">
        <ele>396.68</ele>
        <time>2016-02-26T09:21:29Z</time>
      </trkpt>
      <trkpt lat="43.57074" lon="6.48474">
        <ele>398.6</ele>
        <time>2016-02-26T09:21:39Z</time>
      </trkpt>
      <trkpt lat="43.57079" lon="6.48465">
        <ele>401.01</ele>
        <time>2016-02-26T09:21:54Z</time>
      </trkpt>
      <trkpt lat="43.57079" lon="6.4846">
        <ele>401.49</ele>
        <time>2016-02-26T09:21:59Z</time>
      </trkpt>
      <trkpt lat="43.57079" lon="6.48456">
        <ele>401.97</ele>
        <time>2016-02-26T09:22:02Z</time>
      </trkpt>
      <trkpt lat="43.57079" lon="6.4845">
        <ele>402.45</ele>
        <time>2016-02-26T09:22:04Z</time>
      </trkpt>
      <trkpt lat="43.57081" lon="6.48444">
        <ele>402.45</ele>
        <time>2016-02-26T09:22:07Z</time>
      </trkpt>
      <trkpt lat="43.57086" lon="6.48412">
        <ele>403.41</ele>
        <time>2016-02-26T09:22:16Z</time>
      </trkpt>
      <trkpt lat="43.57087" lon="6.48395">
        <ele>404.37</ele>
        <time>2016-02-26T09:22:21Z</time>
      </trkpt>
      <trkpt lat="43.571" lon="6.48356">
        <ele>406.29</ele>
        <time>2016-02-26T09:22:34Z</time>
      </trkpt>
      <trkpt lat="43.57103" lon="6.48349">
        <ele>406.77</ele>
        <time>2016-02-26T09:22:41Z</time>
      </trkpt>
      <trkpt lat="43.57103" lon="6.48348">
        <ele>407.26</ele>
        <time>2016-02-26T09:22:43Z</time>
      </trkpt>
      <trkpt lat="43.57097" lon="6.48341">
        <ele>407.74</ele>
        <time>2016-02-26T09:22:53Z</time>
      </trkpt>
      <trkpt lat="43.57091" lon="6.48346">
        <ele>407.74</ele>
        <time>2016-02-26T09:23:06Z</time>
      </trkpt>
      <trkpt lat="43.57089" lon="6.48347">
        <ele>407.26</ele>
        <time>2016-02-26T09:23:18Z</time>
      </trkpt>
      <trkpt lat="43.57088" lon="6.48347">
        <ele>407.74</ele>
        <time>2016-02-26T09:23:31Z</time>
      </trkpt>
      <trkpt lat="43.57089" lon="6.48349">
        <ele>407.74</ele>
        <time>2016-02-26T09:23:41Z</time>
      </trkpt>
      <trkpt lat="43.57086" lon="6.4835">
        <ele>407.74</ele>
        <time>2016-02-26T09:23:58Z</time>
      </trkpt>
      <trkpt lat="43.57085" lon="6.48349">
        <ele>407.26</ele>
        <time>2016-02-26T09:24:02Z</time>
      </trkpt>
      <trkpt lat="43.57083" lon="6.48348">
        <ele>406.77</ele>
        <time>2016-02-26T09:24:06Z</time>
      </trkpt>
      <trkpt lat="43.57073" lon="6.48344">
        <ele>404.85</ele>
        <time>2016-02-26T09:24:17Z</time>
      </trkpt>
      <trkpt lat="43.57062" lon="6.48338">
        <ele>404.37</ele>
        <time>2016-02-26T09:24:25Z</time>
      </trkpt>
      <trkpt lat="43.57056" lon="6.48337">
        <ele>403.89</ele>
        <time>2016-02-26T09:24:29Z</time>
      </trkpt>
      <trkpt lat="43.57039" lon="6.48324">
        <ele>402.93</ele>
        <time>2016-02-26T09:24:42Z</time>
      </trkpt>
      <trkpt lat="43.57038" lon="6.48322">
        <ele>402.45</ele>
        <time>2016-02-26T09:24:44Z</time>
      </trkpt>
      <trkpt lat="43.5703" lon="6.48318">
        <ele>401.97</ele>
        <time>2016-02-26T09:24:49Z</time>
      </trkpt>
      <trkpt lat="43.57026" lon="6.48307">
        <ele>401.49</ele>
        <time>2016-02-26T09:24:56Z</time>
      </trkpt>
      <trkpt lat="43.57017" lon="6.48293">
        <ele>400.53</ele>
        <time>2016-02-26T09:25:07Z</time>
      </trkpt>
      <trkpt lat="43.57014" lon="6.4828">
        <ele>400.05</ele>
        <time>2016-02-26T09:25:14Z</time>
      </trkpt>
      <trkpt lat="43.57009" lon="6.48264">
        <ele>399.57</ele>
        <time>2016-02-26T09:25:27Z</time>
      </trkpt>
      <trkpt lat="43.57007" lon="6.48263">
        <ele>399.57</ele>
        <time>2016-02-26T09:25:46Z</time>
      </trkpt>
      <trkpt lat="43.57008" lon="6.48264">
        <ele>399.57</ele>
        <time>2016-02-26T09:26:08Z</time>
      </trkpt>
      <trkpt lat="43.57011" lon="6.48264">
        <ele>399.57</ele>
        <time>2016-02-26T09:26:30Z</time>
      </trkpt>
      <trkpt lat="43.57012" lon="6.48269">
        <ele>400.05</ele>
        <time>2016-02-26T09:26:44Z</time>
      </trkpt>
      <trkpt lat="43.57012" lon="6.48268">
        <ele>400.05</ele>
        <time>2016-02-26T09:26:47Z</time>
      </trkpt>
      <trkpt lat="43.57011" lon="6.48273">
        <ele>400.05</ele>
        <time>2016-02-26T09:26:50Z</time>
      </trkpt>
      <trkpt lat="43.57014" lon="6.48282">
        <ele>400.05</ele>
        <time>2016-02-26T09:26:57Z</time>
      </trkpt>
      <trkpt lat="43.57025" lon="6.48305">
        <ele>401.01</ele>
        <time>2016-02-26T09:27:11Z</time>
      </trkpt>
      <trkpt lat="43.57035" lon="6.48318">
        <ele>401.97</ele>
        <time>2016-02-26T09:27:20Z</time>
      </trkpt>
      <trkpt lat="43.57036" lon="6.48319">
        <ele>402.45</ele>
        <time>2016-02-26T09:27:22Z</time>
      </trkpt>
      <trkpt lat="43.57046" lon="6.48329">
        <ele>403.41</ele>
        <time>2016-02-26T09:27:31Z</time>
      </trkpt>
      <trkpt lat="43.57052" lon="6.48334">
        <ele>403.89</ele>
        <time>2016-02-26T09:27:36Z</time>
      </trkpt>
      <trkpt lat="43.57067" lon="6.48346">
        <ele>404.85</ele>
        <time>2016-02-26T09:27:49Z</time>
      </trkpt>
      <trkpt lat="43.57082" lon="6.48352">
        <ele>406.29</ele>
        <time>2016-02-26T09:28:02Z</time>
      </trkpt>
      <trkpt lat="43.57083" lon="6.4835">
        <ele>406.77</ele>
        <time>2016-02-26T09:28:16Z</time>
      </trkpt>
      <trkpt lat="43.57084" lon="6.4835">
        <ele>406.77</ele>
        <time>2016-02-26T09:28:32Z</time>
      </trkpt>
      <trkpt lat="43.57089" lon="6.48351">
        <ele>407.26</ele>
        <time>2016-02-26T09:28:45Z</time>
      </trkpt>
      <trkpt lat="43.57089" lon="6.48353">
        <ele>406.77</ele>
        <time>2016-02-26T09:28:59Z</time>
      </trkpt>
      <trkpt lat="43.57091" lon="6.48357">
        <ele>406.77</ele>
        <time>2016-02-26T09:29:12Z</time>
      </trkpt>
      <trkpt lat="43.57092" lon="6.48359">
        <ele>406.77</ele>
        <time>2016-02-26T09:29:42Z</time>
      </trkpt>
      <trkpt lat="43.57093" lon="6.48367">
        <ele>405.81</ele>
        <time>2016-02-26T09:29:56Z</time>
      </trkpt>
      <trkpt lat="43.57095" lon="6.48367">
        <ele>405.81</ele>
        <time>2016-02-26T09:30:22Z</time>
      </trkpt>
      <trkpt lat="43.57093" lon="6.48375">
        <ele>405.33</ele>
        <time>2016-02-26T09:30:27Z</time>
      </trkpt>
      <trkpt lat="43.57088" lon="6.48396">
        <ele>402.93</ele>
        <time>2016-02-26T09:30:39Z</time>
      </trkpt>
      <trkpt lat="43.57086" lon="6.48409">
        <ele>401.97</ele>
        <time>2016-02-26T09:30:47Z</time>
      </trkpt>
      <trkpt lat="43.57085" lon="6.48417">
        <ele>401.49</ele>
        <time>2016-02-26T09:30:51Z</time>
      </trkpt>
      <trkpt lat="43.57083" lon="6.48428">
        <ele>401.01</ele>
        <time>2016-02-26T09:30:57Z</time>
      </trkpt>
      <trkpt lat="43.5708" lon="6.48444">
        <ele>399.57</ele>
        <time>2016-02-26T09:31:06Z</time>
      </trkpt>
      <trkpt lat="43.57077" lon="6.48454">
        <ele>399.08</ele>
        <time>2016-02-26T09:31:12Z</time>
      </trkpt>
      <trkpt lat="43.57076" lon="6.48458">
        <ele>399.08</ele>
        <time>2016-02-26T09:31:14Z</time>
      </trkpt>
      <trkpt lat="43.57067" lon="6.48478">
        <ele>396.68</ele>
        <time>2016-02-26T09:31:28Z</time>
      </trkpt>
      <trkpt lat="43.57058" lon="6.48487">
        <ele>395.24</ele>
        <time>2016-02-26T09:31:36Z</time>
      </trkpt>
      <trkpt lat="43.57052" lon="6.48495">
        <ele>394.28</ele>
        <time>2016-02-26T09:31:43Z</time>
      </trkpt>
      <trkpt lat="43.57043" lon="6.48505">
        <ele>393.32</ele>
        <time>2016-02-26T09:31:52Z</time>
      </trkpt>
      <trkpt lat="43.57035" lon="6.48527">
        <ele>391.39</ele>
        <time>2016-02-26T09:32:06Z</time>
      </trkpt>
      <trkpt lat="43.57034" lon="6.48537">
        <ele>389.95</ele>
        <time>2016-02-26T09:32:10Z</time>
      </trkpt>
      <trkpt lat="43.57034" lon="6.4856">
        <ele>388.99</ele>
        <time>2016-02-26T09:32:23Z</time>
      </trkpt>
      <trkpt lat="43.57036" lon="6.48581">
        <ele>388.03</ele>
        <time>2016-02-26T09:32:36Z</time>
      </trkpt>
      <trkpt lat="43.57038" lon="6.48588">
        <ele>388.03</ele>
        <time>2016-02-26T09:32:40Z</time>
      </trkpt>
      <trkpt lat="43.57037" lon="6.48595">
        <ele>387.55</ele>
        <time>2016-02-26T09:32:44Z</time>
      </trkpt>
      <trkpt lat="43.57035" lon="6.48617">
        <ele>387.55</ele>
        <time>2016-02-26T09:32:57Z</time>
      </trkpt>
      <trkpt lat="43.57035" lon="6.4862">
        <ele>387.55</ele>
        <time>2016-02-26T09:32:59Z</time>
      </trkpt>
      <trkpt lat="43.57029" lon="6.48642">
        <ele>386.59</ele>
        <time>2016-02-26T09:33:13Z</time>
      </trkpt>
      <trkpt lat="43.57028" lon="6.48642">
        <ele>387.07</ele>
        <time>2016-02-26T09:33:19Z</time>
      </trkpt>
      <trkpt lat="43.57029" lon="6.48619">
        <ele>386.11</ele>
        <time>2016-02-26T09:33:34Z</time>
      </trkpt>
      <trkpt lat="43.57031" lon="6.48596">
        <ele>385.63</ele>
        <time>2016-02-26T09:33:48Z</time>
      </trkpt>
      <trkpt lat="43.57031" lon="6.48586">
        <ele>385.15</ele>
        <time>2016-02-26T09:33:54Z</time>
      </trkpt>
      <trkpt lat="43.57021" lon="6.48565">
        <ele>384.18</ele>
        <time>2016-02-26T09:34:08Z</time>
      </trkpt>
      <trkpt lat="43.57018" lon="6.48553">
        <ele>383.7</ele>
        <time>2016-02-26T09:34:14Z</time>
      </trkpt>
      <trkpt lat="43.57013" lon="6.48524">
        <ele>383.22</ele>
        <time>2016-02-26T09:34:29Z</time>
      </trkpt>
      <trkpt lat="43.57013" lon="6.48512">
        <ele>382.74</ele>
        <time>2016-02-26T09:34:35Z</time>
      </trkpt>
      <trkpt lat="43.57013" lon="6.48503">
        <ele>382.74</ele>
        <time>2016-02-26T09:34:40Z</time>
      </trkpt>
      <trkpt lat="43.57016" lon="6.48486">
        <ele>383.22</ele>
        <time>2016-02-26T09:34:54Z</time>
      </trkpt>
      <trkpt lat="43.57017" lon="6.48486">
        <ele>383.22</ele>
        <time>2016-02-26T09:35:04Z</time>
      </trkpt>
      <trkpt lat="43.57017" lon="6.48486">
        <ele>382.74</ele>
        <time>2016-02-26T09:35:10Z</time>
      </trkpt>
      <trkpt lat="43.57016" lon="6.48491">
        <ele>382.74</ele>
        <time>2016-02-26T09:35:22Z</time>
      </trkpt>
      <trkpt lat="43.57016" lon="6.48492">
        <ele>383.22</ele>
        <time>2016-02-26T09:35:23Z</time>
      </trkpt>
      <trkpt lat="43.57014" lon="6.48502">
        <ele>382.74</ele>
        <time>2016-02-26T09:35:33Z</time>
      </trkpt>
      <trkpt lat="43.57015" lon="6.48524">
        <ele>383.22</ele>
        <time>2016-02-26T09:35:41Z</time>
      </trkpt>
      <trkpt lat="43.57019" lon="6.48561">
        <ele>383.7</ele>
        <time>2016-02-26T09:35:52Z</time>
      </trkpt>
      <trkpt lat="43.57023" lon="6.48583">
        <ele>384.18</ele>
        <time>2016-02-26T09:36:03Z</time>
      </trkpt>
      <trkpt lat="43.57028" lon="6.48587">
        <ele>384.66</ele>
        <time>2016-02-26T09:36:08Z</time>
      </trkpt>
      <trkpt lat="43.57032" lon="6.48592">
        <ele>384.66</ele>
        <time>2016-02-26T09:36:12Z</time>
      </trkpt>
      <trkpt lat="43.57031" lon="6.48606">
        <ele>385.63</ele>
        <time>2016-02-26T09:36:20Z</time>
      </trkpt>
      <trkpt lat="43.57027" lon="6.48621">
        <ele>386.11</ele>
        <time>2016-02-26T09:36:32Z</time>
      </trkpt>
      <trkpt lat="43.57028" lon="6.48623">
        <ele>386.59</ele>
        <time>2016-02-26T09:36:38Z</time>
      </trkpt>
      <trkpt lat="43.57028" lon="6.48646">
        <ele>383.22</ele>
        <time>2016-02-26T09:36:46Z</time>
      </trkpt>
      <trkpt lat="43.57028" lon="6.48648">
        <ele>388.99</ele>
        <time>2016-02-26T09:36:47Z</time>
      </trkpt>
      <trkpt lat="43.57027" lon="6.48653">
        <ele>385.63</ele>
        <time>2016-02-26T09:36:49Z</time>
      </trkpt>
      <trkpt lat="43.57024" lon="6.48681">
        <ele>386.11</ele>
        <time>2016-02-26T09:37:01Z</time>
      </trkpt>
      <trkpt lat="43.57025" lon="6.4869">
        <ele>385.63</ele>
        <time>2016-02-26T09:37:07Z</time>
      </trkpt>
      <trkpt lat="43.57026" lon="6.48696">
        <ele>385.63</ele>
        <time>2016-02-26T09:37:10Z</time>
      </trkpt>
      <trkpt lat="43.57034" lon="6.48705">
        <ele>385.15</ele>
        <time>2016-02-26T09:37:18Z</time>
      </trkpt>
      <trkpt lat="43.57037" lon="6.48707">
        <ele>385.15</ele>
        <time>2016-02-26T09:37:20Z</time>
      </trkpt>
      <trkpt lat="43.57041" lon="6.48714">
        <ele>385.15</ele>
        <time>2016-02-26T09:37:24Z</time>
      </trkpt>
      <trkpt lat="43.57042" lon="6.48723">
        <ele>385.15</ele>
        <time>2016-02-26T09:37:28Z</time>
      </trkpt>
      <trkpt lat="43.57045" lon="6.48732">
        <ele>383.7</ele>
        <time>2016-02-26T09:37:33Z</time>
      </trkpt>
      <trkpt lat="43.57048" lon="6.48754">
        <ele>383.7</ele>
        <time>2016-02-26T09:37:45Z</time>
      </trkpt>
      <trkpt lat="43.57048" lon="6.48761">
        <ele>383.22</ele>
        <time>2016-02-26T09:37:48Z</time>
      </trkpt>
      <trkpt lat="43.57049" lon="6.48766">
        <ele>383.22</ele>
        <time>2016-02-26T09:37:51Z</time>
      </trkpt>
      <trkpt lat="43.57052" lon="6.48782">
        <ele>383.22</ele>
        <time>2016-02-26T09:37:59Z</time>
      </trkpt>
      <trkpt lat="43.57053" lon="6.48788">
        <ele>382.74</ele>
        <time>2016-02-26T09:38:01Z</time>
      </trkpt>
      <trkpt lat="43.57053" lon="6.48801">
        <ele>383.22</ele>
        <time>2016-02-26T09:38:06Z</time>
      </trkpt>
      <trkpt lat="43.57056" lon="6.48811">
        <ele>382.26</ele>
        <time>2016-02-26T09:38:11Z</time>
      </trkpt>
      <trkpt lat="43.57058" lon="6.48823">
        <ele>382.26</ele>
        <time>2016-02-26T09:38:16Z</time>
      </trkpt>
      <trkpt lat="43.57062" lon="6.48851">
        <ele>382.26</ele>
        <time>2016-02-26T09:38:29Z</time>
      </trkpt>
      <trkpt lat="43.5706" lon="6.48855">
        <ele>381.78</ele>
        <time>2016-02-26T09:38:42Z</time>
      </trkpt>
      <trkpt lat="43.5706" lon="6.48856">
        <ele>381.78</ele>
        <time>2016-02-26T09:39:05Z</time>
      </trkpt>
      <trkpt lat="43.57061" lon="6.48856">
        <ele>381.78</ele>
        <time>2016-02-26T09:39:14Z</time>
      </trkpt>
      <trkpt lat="43.57069" lon="6.48874">
        <ele>381.3</ele>
        <time>2016-02-26T09:39:26Z</time>
      </trkpt>
      <trkpt lat="43.57079" lon="6.48888">
        <ele>380.82</ele>
        <time>2016-02-26T09:39:37Z</time>
      </trkpt>
      <trkpt lat="43.57083" lon="6.48892">
        <ele>380.34</ele>
        <time>2016-02-26T09:39:40Z</time>
      </trkpt>
      <trkpt lat="43.5709" lon="6.4891">
        <ele>380.34</ele>
        <time>2016-02-26T09:39:50Z</time>
      </trkpt>
      <trkpt lat="43.57094" lon="6.48924">
        <ele>379.86</ele>
        <time>2016-02-26T09:39:58Z</time>
      </trkpt>
      <trkpt lat="43.57096" lon="6.48931">
        <ele>378.9</ele>
        <time>2016-02-26T09:40:02Z</time>
      </trkpt>
      <trkpt lat="43.57101" lon="6.48946">
        <ele>378.42</ele>
        <time>2016-02-26T09:40:10Z</time>
      </trkpt>
      <trkpt lat="43.57104" lon="6.48951">
        <ele>378.42</ele>
        <time>2016-02-26T09:40:13Z</time>
      </trkpt>
      <trkpt lat="43.57105" lon="6.48961">
        <ele>377.45</ele>
        <time>2016-02-26T09:40:18Z</time>
      </trkpt>
      <trkpt lat="43.57105" lon="6.48992">
        <ele>376.49</ele>
        <time>2016-02-26T09:40:32Z</time>
      </trkpt>
      <trkpt lat="43.57108" lon="6.49021">
        <ele>376.97</ele>
        <time>2016-02-26T09:40:45Z</time>
      </trkpt>
      <trkpt lat="43.57114" lon="6.49034">
        <ele>376.97</ele>
        <time>2016-02-26T09:40:53Z</time>
      </trkpt>
      <trkpt lat="43.57122" lon="6.49039">
        <ele>376.97</ele>
        <time>2016-02-26T09:40:58Z</time>
      </trkpt>
      <trkpt lat="43.57133" lon="6.49052">
        <ele>376.97</ele>
        <time>2016-02-26T09:41:08Z</time>
      </trkpt>
      <trkpt lat="43.57136" lon="6.49054">
        <ele>376.49</ele>
        <time>2016-02-26T09:41:10Z</time>
      </trkpt>
      <trkpt lat="43.57139" lon="6.49058">
        <ele>376.01</ele>
        <time>2016-02-26T09:41:13Z</time>
      </trkpt>
      <trkpt lat="43.57152" lon="6.49065">
        <ele>375.53</ele>
        <time>2016-02-26T09:41:22Z</time>
      </trkpt>
      <trkpt lat="43.57159" lon="6.49072">
        <ele>374.57</ele>
        <time>2016-02-26T09:41:27Z</time>
      </trkpt>
      <trkpt lat="43.57173" lon="6.49085">
        <ele>374.09</ele>
        <time>2016-02-26T09:41:38Z</time>
      </trkpt>
      <trkpt lat="43.57181" lon="6.49097">
        <ele>372.65</ele>
        <time>2016-02-26T09:41:47Z</time>
      </trkpt>
      <trkpt lat="43.57185" lon="6.49102">
        <ele>372.17</ele>
        <time>2016-02-26T09:41:51Z</time>
      </trkpt>
      <trkpt lat="43.57188" lon="6.49109">
        <ele>371.21</ele>
        <time>2016-02-26T09:41:55Z</time>
      </trkpt>
      <trkpt lat="43.57193" lon="6.49117">
        <ele>370.24</ele>
        <time>2016-02-26T09:42:01Z</time>
      </trkpt>
      <trkpt lat="43.57209" lon="6.49134">
        <ele>367.36</ele>
        <time>2016-02-26T09:42:15Z</time>
      </trkpt>
      <trkpt lat="43.57224" lon="6.49151">
        <ele>364</ele>
        <time>2016-02-26T09:42:28Z</time>
      </trkpt>
      <trkpt lat="43.57238" lon="6.49161">
        <ele>363.04</ele>
        <time>2016-02-26T09:42:39Z</time>
      </trkpt>
      <trkpt lat="43.57244" lon="6.49168">
        <ele>361.59</ele>
        <time>2016-02-26T09:42:44Z</time>
      </trkpt>
      <trkpt lat="43.57246" lon="6.49179">
        <ele>360.63</ele>
        <time>2016-02-26T09:42:50Z</time>
      </trkpt>
      <trkpt lat="43.57242" lon="6.49194">
        <ele>359.19</ele>
        <time>2016-02-26T09:43:00Z</time>
      </trkpt>
      <trkpt lat="43.5724" lon="6.49204">
        <ele>357.75</ele>
        <time>2016-02-26T09:43:07Z</time>
      </trkpt>
      <trkpt lat="43.57238" lon="6.49221">
        <ele>355.83</ele>
        <time>2016-02-26T09:43:16Z</time>
      </trkpt>
      <trkpt lat="43.57236" lon="6.49233">
        <ele>354.86</ele>
        <time>2016-02-26T09:43:24Z</time>
      </trkpt>
      <trkpt lat="43.57231" lon="6.49237">
        <ele>353.9</ele>
        <time>2016-02-26T09:43:29Z</time>
      </trkpt>
      <trkpt lat="43.5723" lon="6.49237">
        <ele>356.31</ele>
        <time>2016-02-26T09:43:31Z</time>
      </trkpt>
      <trkpt lat="43.57221" lon="6.4924">
        <ele>351.98</ele>
        <time>2016-02-26T09:43:38Z</time>
      </trkpt>
      <trkpt lat="43.57201" lon="6.4924">
        <ele>348.13</ele>
        <time>2016-02-26T09:43:56Z</time>
      </trkpt>
      <trkpt lat="43.57198" lon="6.49242">
        <ele>347.65</ele>
        <time>2016-02-26T09:44:00Z</time>
      </trkpt>
      <trkpt lat="43.57195" lon="6.4925">
        <ele>346.69</ele>
        <time>2016-02-26T09:44:05Z</time>
      </trkpt>
      <trkpt lat="43.5719" lon="6.49268">
        <ele>345.25</ele>
        <time>2016-02-26T09:44:15Z</time>
      </trkpt>
      <trkpt lat="43.57183" lon="6.49272">
        <ele>344.29</ele>
        <time>2016-02-26T09:44:20Z</time>
      </trkpt>
      <trkpt lat="43.5716" lon="6.49274">
        <ele>340.92</ele>
        <time>2016-02-26T09:44:37Z</time>
      </trkpt>
      <trkpt lat="43.57152" lon="6.4927">
        <ele>340.44</ele>
        <time>2016-02-26T09:44:42Z</time>
      </trkpt>
      <trkpt lat="43.57147" lon="6.49265">
        <ele>339.96</ele>
        <time>2016-02-26T09:44:47Z</time>
      </trkpt>
      <trkpt lat="43.57135" lon="6.49254">
        <ele>339.48</ele>
        <time>2016-02-26T09:44:57Z</time>
      </trkpt>
      <trkpt lat="43.5713" lon="6.49263">
        <ele>339.48</ele>
        <time>2016-02-26T09:45:05Z</time>
      </trkpt>
      <trkpt lat="43.57125" lon="6.49278">
        <ele>339</ele>
        <time>2016-02-26T09:45:17Z</time>
      </trkpt>
      <trkpt lat="43.57122" lon="6.49292">
        <ele>338.52</ele>
        <time>2016-02-26T09:45:25Z</time>
      </trkpt>
      <trkpt lat="43.57115" lon="6.49307">
        <ele>338.52</ele>
        <time>2016-02-26T09:45:30Z</time>
      </trkpt>
      <trkpt lat="43.57109" lon="6.49312">
        <ele>337.56</ele>
        <time>2016-02-26T09:45:37Z</time>
      </trkpt>
      <trkpt lat="43.57107" lon="6.49327">
        <ele>336.12</ele>
        <time>2016-02-26T09:45:43Z</time>
      </trkpt>
      <trkpt lat="43.571" lon="6.49335">
        <ele>334.2</ele>
        <time>2016-02-26T09:45:52Z</time>
      </trkpt>
      <trkpt lat="43.57095" lon="6.49337">
        <ele>333.23</ele>
        <time>2016-02-26T09:45:55Z</time>
      </trkpt>
      <trkpt lat="43.57078" lon="6.49349">
        <ele>330.83</ele>
        <time>2016-02-26T09:46:05Z</time>
      </trkpt>
      <trkpt lat="43.57076" lon="6.4935">
        <ele>330.35</ele>
        <time>2016-02-26T09:46:06Z</time>
      </trkpt>
      <trkpt lat="43.57064" lon="6.49363">
        <ele>327.95</ele>
        <time>2016-02-26T09:46:19Z</time>
      </trkpt>
      <trkpt lat="43.57057" lon="6.49382">
        <ele>326.02</ele>
        <time>2016-02-26T09:46:28Z</time>
      </trkpt>
      <trkpt lat="43.57056" lon="6.4939">
        <ele>324.58</ele>
        <time>2016-02-26T09:46:35Z</time>
      </trkpt>
      <trkpt lat="43.57057" lon="6.49393">
        <ele>323.14</ele>
        <time>2016-02-26T09:46:43Z</time>
      </trkpt>
      <trkpt lat="43.57057" lon="6.49399">
        <ele>322.18</ele>
        <time>2016-02-26T09:46:47Z</time>
      </trkpt>
      <trkpt lat="43.57043" lon="6.49416">
        <ele>318.81</ele>
        <time>2016-02-26T09:46:59Z</time>
      </trkpt>
      <trkpt lat="43.57038" lon="6.49423">
        <ele>316.89</ele>
        <time>2016-02-26T09:47:07Z</time>
      </trkpt>
      <trkpt lat="43.57036" lon="6.49431">
        <ele>316.41</ele>
        <time>2016-02-26T09:47:10Z</time>
      </trkpt>
      <trkpt lat="43.57036" lon="6.49439">
        <ele>315.93</ele>
        <time>2016-02-26T09:47:13Z</time>
      </trkpt>
      <trkpt lat="43.5703" lon="6.49451">
        <ele>313.53</ele>
        <time>2016-02-26T09:47:25Z</time>
      </trkpt>
      <trkpt lat="43.57016" lon="6.49477">
        <ele>312.09</ele>
        <time>2016-02-26T09:47:35Z</time>
      </trkpt>
      <trkpt lat="43.57012" lon="6.49486">
        <ele>311.12</ele>
        <time>2016-02-26T09:47:41Z</time>
      </trkpt>
      <trkpt lat="43.57009" lon="6.4949">
        <ele>311.12</ele>
        <time>2016-02-26T09:47:45Z</time>
      </trkpt>
      <trkpt lat="43.57006" lon="6.49497">
        <ele>310.16</ele>
        <time>2016-02-26T09:47:54Z</time>
      </trkpt>
      <trkpt lat="43.57002" lon="6.49505">
        <ele>309.68</ele>
        <time>2016-02-26T09:47:59Z</time>
      </trkpt>
      <trkpt lat="43.56996" lon="6.49522">
        <ele>309.2</ele>
        <time>2016-02-26T09:48:05Z</time>
      </trkpt>
      <trkpt lat="43.56985" lon="6.49552">
        <ele>307.76</ele>
        <time>2016-02-26T09:48:17Z</time>
      </trkpt>
      <trkpt lat="43.56982" lon="6.49561">
        <ele>307.28</ele>
        <time>2016-02-26T09:48:27Z</time>
      </trkpt>
      <trkpt lat="43.56976" lon="6.49581">
        <ele>306.32</ele>
        <time>2016-02-26T09:48:39Z</time>
      </trkpt>
      <trkpt lat="43.5697" lon="6.49594">
        <ele>305.84</ele>
        <time>2016-02-26T09:48:48Z</time>
      </trkpt>
      <trkpt lat="43.56968" lon="6.49596">
        <ele>305.36</ele>
        <time>2016-02-26T09:48:50Z</time>
      </trkpt>
      <trkpt lat="43.56957" lon="6.49614">
        <ele>304.88</ele>
        <time>2016-02-26T09:49:05Z</time>
      </trkpt>
      <trkpt lat="43.56951" lon="6.49627">
        <ele>304.88</ele>
        <time>2016-02-26T09:49:16Z</time>
      </trkpt>
      <trkpt lat="43.56945" lon="6.49631">
        <ele>304.88</ele>
        <time>2016-02-26T09:49:25Z</time>
      </trkpt>
      <trkpt lat="43.56935" lon="6.49636">
        <ele>304.39</ele>
        <time>2016-02-26T09:49:37Z</time>
      </trkpt>
      <trkpt lat="43.56917" lon="6.49654">
        <ele>303.91</ele>
        <time>2016-02-26T09:49:54Z</time>
      </trkpt>
      <trkpt lat="43.56919" lon="6.49657">
        <ele>303.91</ele>
        <time>2016-02-26T09:50:07Z</time>
      </trkpt>
      <trkpt lat="43.56929" lon="6.49654">
        <ele>304.39</ele>
        <time>2016-02-26T09:50:21Z</time>
      </trkpt>
      <trkpt lat="43.56922" lon="6.49657">
        <ele>304.39</ele>
        <time>2016-02-26T09:50:32Z</time>
      </trkpt>
      <trkpt lat="43.56918" lon="6.49661">
        <ele>304.39</ele>
        <time>2016-02-26T09:50:36Z</time>
      </trkpt>
      <trkpt lat="43.56896" lon="6.49661">
        <ele>303.91</ele>
        <time>2016-02-26T09:50:52Z</time>
      </trkpt>
      <trkpt lat="43.56894" lon="6.49665">
        <ele>303.91</ele>
        <time>2016-02-26T09:50:56Z</time>
      </trkpt>
      <trkpt lat="43.56891" lon="6.49668">
        <ele>303.91</ele>
        <time>2016-02-26T09:51:00Z</time>
      </trkpt>
      <trkpt lat="43.56881" lon="6.49684">
        <ele>303.91</ele>
        <time>2016-02-26T09:51:14Z</time>
      </trkpt>
      <trkpt lat="43.56874" lon="6.49695">
        <ele>304.88</ele>
        <time>2016-02-26T09:51:33Z</time>
      </trkpt>
      <trkpt lat="43.56872" lon="6.49698">
        <ele>301.51</ele>
        <time>2016-02-26T09:51:43Z</time>
      </trkpt>
      <trkpt lat="43.56872" lon="6.49698">
        <ele>307.28</ele>
        <time>2016-02-26T09:51:44Z</time>
      </trkpt>
      <trkpt lat="43.5687" lon="6.49702">
        <ele>304.39</ele>
        <time>2016-02-26T09:51:48Z</time>
      </trkpt>
      <trkpt lat="43.56868" lon="6.49708">
        <ele>303.91</ele>
        <time>2016-02-26T09:51:51Z</time>
      </trkpt>
      <trkpt lat="43.56866" lon="6.49715">
        <ele>303.91</ele>
        <time>2016-02-26T09:51:53Z</time>
      </trkpt>
      <trkpt lat="43.56863" lon="6.4973">
        <ele>303.43</ele>
        <time>2016-02-26T09:52:02Z</time>
      </trkpt>
      <trkpt lat="43.56858" lon="6.49749">
        <ele>302.95</ele>
        <time>2016-02-26T09:52:14Z</time>
      </trkpt>
      <trkpt lat="43.56847" lon="6.49776">
        <ele>302.47</ele>
        <time>2016-02-26T09:52:28Z</time>
      </trkpt>
      <trkpt lat="43.56831" lon="6.49791">
        <ele>302.95</ele>
        <time>2016-02-26T09:52:42Z</time>
      </trkpt>
      <trkpt lat="43.5683" lon="6.49792">
        <ele>302.95</ele>
        <time>2016-02-26T09:52:44Z</time>
      </trkpt>
      <trkpt lat="43.56823" lon="6.498">
        <ele>303.43</ele>
        <time>2016-02-26T09:52:49Z</time>
      </trkpt>
      <trkpt lat="43.56816" lon="6.49808">
        <ele>303.91</ele>
        <time>2016-02-26T09:52:58Z</time>
      </trkpt>
      <trkpt lat="43.56807" lon="6.49818">
        <ele>304.88</ele>
        <time>2016-02-26T09:53:11Z</time>
      </trkpt>
      <trkpt lat="43.568" lon="6.49822">
        <ele>305.84</ele>
        <time>2016-02-26T09:53:21Z</time>
      </trkpt>
      <trkpt lat="43.56797" lon="6.49824">
        <ele>305.84</ele>
        <time>2016-02-26T09:53:26Z</time>
      </trkpt>
      <trkpt lat="43.56789" lon="6.49821">
        <ele>306.32</ele>
        <time>2016-02-26T09:53:33Z</time>
      </trkpt>
      <trkpt lat="43.5678" lon="6.49816">
        <ele>307.76</ele>
        <time>2016-02-26T09:53:42Z</time>
      </trkpt>
      <trkpt lat="43.56772" lon="6.49814">
        <ele>308.72</ele>
        <time>2016-02-26T09:53:49Z</time>
      </trkpt>
      <trkpt lat="43.56764" lon="6.4981">
        <ele>309.2</ele>
        <time>2016-02-26T09:53:55Z</time>
      </trkpt>
      <trkpt lat="43.56757" lon="6.49808">
        <ele>310.16</ele>
        <time>2016-02-26T09:53:59Z</time>
      </trkpt>
      <trkpt lat="43.56753" lon="6.49807">
        <ele>310.64</ele>
        <time>2016-02-26T09:54:03Z</time>
      </trkpt>
      <trkpt lat="43.56741" lon="6.4981">
        <ele>312.57</ele>
        <time>2016-02-26T09:54:16Z</time>
      </trkpt>
      <trkpt lat="43.56731" lon="6.49823">
        <ele>312.09</ele>
        <time>2016-02-26T09:54:27Z</time>
      </trkpt>
      <trkpt lat="43.56728" lon="6.4983">
        <ele>312.57</ele>
        <time>2016-02-26T09:54:40Z</time>
      </trkpt>
      <trkpt lat="43.56728" lon="6.4983">
        <ele>312.57</ele>
        <time>2016-02-26T09:55:00Z</time>
      </trkpt>
      <trkpt lat="43.56727" lon="6.4983">
        <ele>312.57</ele>
        <time>2016-02-26T09:55:15Z</time>
      </trkpt>
      <trkpt lat="43.56727" lon="6.4983">
        <ele>311.12</ele>
        <time>2016-02-26T09:55:20Z</time>
      </trkpt>
    </trkseg>
  </trk>
</gpx>